<?xml version="1.0" encoding="UTF-8" standalone="no" ?>
<gpx xmlns="http://www.topografix.com/GPX/1/1" xmlns:xsi="http://www.w3.org/2001/XMLSchema-instance" xsi:schemaLocation="http://www.topografix.com/GPX/1/1 http://www.topografix.com/GPX/1/1/gpx.xsd" version="1.1" creator="VisuGPX - https://www.visugpx.com">
  <metadata>
    <name>Sortie Caussens 2</name>
  </metadata>
  <trk>
    <name><![CDATA[Sortie Caussens 2_2]]></name>
    <extensions>
      <line xmlns="http://www.topografix.com/GPX/gpx_style/0/2">
        <color>de12b8</color>
        <width>4</width>
      </line>
    </extensions>
    <trkseg>
      <trkpt lat="43.9476" lon="0.46121">
        <ele>152</ele>
        <time>2018-01-05T08:35:58Z</time>
      </trkpt>
      <trkpt lat="43.94758" lon="0.46119">
        <ele>152.1</ele>
        <time>2018-01-05T08:35:57Z</time>
      </trkpt>
      <trkpt lat="43.94756" lon="0.46116">
        <ele>152.2</ele>
        <time>2018-01-05T08:35:56Z</time>
      </trkpt>
      <trkpt lat="43.94754" lon="0.46114">
        <ele>152.3</ele>
        <time>2018-01-05T08:35:55Z</time>
      </trkpt>
      <trkpt lat="43.94735" lon="0.46111">
        <ele>152.7</ele>
        <time>2018-01-05T08:35:47Z</time>
      </trkpt>
      <trkpt lat="43.94717" lon="0.46095">
        <ele>152.9</ele>
        <time>2018-01-05T08:35:40Z</time>
      </trkpt>
      <trkpt lat="43.947" lon="0.46078">
        <ele>152.8</ele>
        <time>2018-01-05T08:35:33Z</time>
      </trkpt>
      <trkpt lat="43.94698" lon="0.46075">
        <ele>152.8</ele>
        <time>2018-01-05T08:35:32Z</time>
      </trkpt>
      <trkpt lat="43.94696" lon="0.46073">
        <ele>152.8</ele>
        <time>2018-01-05T08:35:31Z</time>
      </trkpt>
      <trkpt lat="43.94693" lon="0.4607">
        <ele>152.8</ele>
        <time>2018-01-05T08:35:30Z</time>
      </trkpt>
      <trkpt lat="43.9469" lon="0.46068">
        <ele>152.8</ele>
        <time>2018-01-05T08:35:29Z</time>
      </trkpt>
      <trkpt lat="43.94687" lon="0.46067">
        <ele>152.8</ele>
        <time>2018-01-05T08:35:28Z</time>
      </trkpt>
      <trkpt lat="43.94684" lon="0.46067">
        <ele>152.7</ele>
        <time>2018-01-05T08:35:27Z</time>
      </trkpt>
      <trkpt lat="43.94674" lon="0.4608">
        <ele>152.5</ele>
        <time>2018-01-05T08:35:22Z</time>
      </trkpt>
      <trkpt lat="43.94668" lon="0.46109">
        <ele>151.7</ele>
        <time>2018-01-05T08:35:14Z</time>
      </trkpt>
      <trkpt lat="43.94665" lon="0.46134">
        <ele>150.8</ele>
        <time>2018-01-05T08:35:07Z</time>
      </trkpt>
      <trkpt lat="43.94665" lon="0.46138">
        <ele>150.7</ele>
        <time>2018-01-05T08:35:06Z</time>
      </trkpt>
      <trkpt lat="43.94663" lon="0.46167">
        <ele>149.3</ele>
        <time>2018-01-05T08:34:58Z</time>
      </trkpt>
      <trkpt lat="43.94661" lon="0.46196">
        <ele>147.7</ele>
        <time>2018-01-05T08:34:50Z</time>
      </trkpt>
      <trkpt lat="43.94659" lon="0.46225">
        <ele>146.3</ele>
        <time>2018-01-05T08:34:41Z</time>
      </trkpt>
      <trkpt lat="43.94655" lon="0.46253">
        <ele>145</ele>
        <time>2018-01-05T08:34:32Z</time>
      </trkpt>
      <trkpt lat="43.94651" lon="0.46279">
        <ele>143.6</ele>
        <time>2018-01-05T08:34:24Z</time>
      </trkpt>
      <trkpt lat="43.94647" lon="0.46307">
        <ele>142.3</ele>
        <time>2018-01-05T08:34:15Z</time>
      </trkpt>
      <trkpt lat="43.94644" lon="0.46332">
        <ele>141.1</ele>
        <time>2018-01-05T08:34:07Z</time>
      </trkpt>
      <trkpt lat="43.94639" lon="0.46355">
        <ele>140</ele>
        <time>2018-01-05T08:33:59Z</time>
      </trkpt>
      <trkpt lat="43.94634" lon="0.4638">
        <ele>139.6</ele>
        <time>2018-01-05T08:33:51Z</time>
      </trkpt>
      <trkpt lat="43.94627" lon="0.46406">
        <ele>139</ele>
        <time>2018-01-05T08:33:42Z</time>
      </trkpt>
      <trkpt lat="43.94622" lon="0.46434">
        <ele>138.4</ele>
        <time>2018-01-05T08:33:33Z</time>
      </trkpt>
      <trkpt lat="43.94622" lon="0.46463">
        <ele>137.6</ele>
        <time>2018-01-05T08:33:24Z</time>
      </trkpt>
      <trkpt lat="43.94629" lon="0.46488">
        <ele>136.9</ele>
        <time>2018-01-05T08:33:16Z</time>
      </trkpt>
      <trkpt lat="43.94637" lon="0.46511">
        <ele>136.5</ele>
        <time>2018-01-05T08:33:08Z</time>
      </trkpt>
      <trkpt lat="43.94645" lon="0.46533">
        <ele>136</ele>
        <time>2018-01-05T08:33:00Z</time>
      </trkpt>
      <trkpt lat="43.94653" lon="0.46555">
        <ele>135.6</ele>
        <time>2018-01-05T08:32:52Z</time>
      </trkpt>
      <trkpt lat="43.94662" lon="0.46578">
        <ele>135.2</ele>
        <time>2018-01-05T08:32:44Z</time>
      </trkpt>
      <trkpt lat="43.94673" lon="0.46601">
        <ele>134.7</ele>
        <time>2018-01-05T08:32:36Z</time>
      </trkpt>
      <trkpt lat="43.94685" lon="0.46621">
        <ele>134.4</ele>
        <time>2018-01-05T08:32:28Z</time>
      </trkpt>
      <trkpt lat="43.94699" lon="0.46639">
        <ele>134</ele>
        <time>2018-01-05T08:32:20Z</time>
      </trkpt>
      <trkpt lat="43.94714" lon="0.46659">
        <ele>132.8</ele>
        <time>2018-01-05T08:32:11Z</time>
      </trkpt>
      <trkpt lat="43.94729" lon="0.46679">
        <ele>131</ele>
        <time>2018-01-05T08:32:02Z</time>
      </trkpt>
      <trkpt lat="43.94741" lon="0.46699">
        <ele>129.7</ele>
        <time>2018-01-05T08:31:53Z</time>
      </trkpt>
      <trkpt lat="43.94756" lon="0.46716">
        <ele>128.1</ele>
        <time>2018-01-05T08:31:44Z</time>
      </trkpt>
      <trkpt lat="43.94769" lon="0.46736">
        <ele>127.4</ele>
        <time>2018-01-05T08:31:35Z</time>
      </trkpt>
      <trkpt lat="43.94781" lon="0.46758">
        <ele>125.9</ele>
        <time>2018-01-05T08:31:27Z</time>
      </trkpt>
      <trkpt lat="43.94795" lon="0.46778">
        <ele>123.9</ele>
        <time>2018-01-05T08:31:19Z</time>
      </trkpt>
      <trkpt lat="43.94808" lon="0.46795">
        <ele>122.4</ele>
        <time>2018-01-05T08:31:11Z</time>
      </trkpt>
      <trkpt lat="43.94821" lon="0.46813">
        <ele>121.1</ele>
        <time>2018-01-05T08:31:03Z</time>
      </trkpt>
      <trkpt lat="43.94831" lon="0.46833">
        <ele>119.4</ele>
        <time>2018-01-05T08:30:55Z</time>
      </trkpt>
      <trkpt lat="43.94839" lon="0.46857">
        <ele>117.8</ele>
        <time>2018-01-05T08:30:47Z</time>
      </trkpt>
      <trkpt lat="43.94845" lon="0.46884">
        <ele>117</ele>
        <time>2018-01-05T08:30:39Z</time>
      </trkpt>
      <trkpt lat="43.94851" lon="0.46909">
        <ele>116.3</ele>
        <time>2018-01-05T08:30:31Z</time>
      </trkpt>
      <trkpt lat="43.94856" lon="0.46937">
        <ele>115.4</ele>
        <time>2018-01-05T08:30:23Z</time>
      </trkpt>
      <trkpt lat="43.94859" lon="0.46966">
        <ele>115.1</ele>
        <time>2018-01-05T08:30:15Z</time>
      </trkpt>
      <trkpt lat="43.94862" lon="0.46993">
        <ele>114.9</ele>
        <time>2018-01-05T08:30:07Z</time>
      </trkpt>
      <trkpt lat="43.94866" lon="0.47021">
        <ele>114.7</ele>
        <time>2018-01-05T08:29:59Z</time>
      </trkpt>
      <trkpt lat="43.94869" lon="0.4705">
        <ele>114.5</ele>
        <time>2018-01-05T08:29:51Z</time>
      </trkpt>
      <trkpt lat="43.94877" lon="0.47075">
        <ele>114.4</ele>
        <time>2018-01-05T08:29:43Z</time>
      </trkpt>
      <trkpt lat="43.94886" lon="0.471">
        <ele>114.3</ele>
        <time>2018-01-05T08:29:36Z</time>
      </trkpt>
      <trkpt lat="43.94895" lon="0.47127">
        <ele>114.1</ele>
        <time>2018-01-05T08:29:28Z</time>
      </trkpt>
      <trkpt lat="43.94909" lon="0.47146">
        <ele>113.9</ele>
        <time>2018-01-05T08:29:21Z</time>
      </trkpt>
      <trkpt lat="43.94909" lon="0.47148">
        <ele>114.098</ele>
        <time>2016-08-11T11:24:09Z</time>
      </trkpt>
      <trkpt lat="43.94921" lon="0.4721">
        <ele>115.017</ele>
        <time>2016-08-11T11:24:09Z</time>
      </trkpt>
      <trkpt lat="43.94808" lon="0.47516">
        <ele>119.008</ele>
        <time>2016-08-11T11:24:09Z</time>
      </trkpt>
      <trkpt lat="43.94863" lon="0.4761">
        <ele>125.092</ele>
        <time>2016-08-11T11:24:09Z</time>
      </trkpt>
      <trkpt lat="43.9488" lon="0.47714">
        <ele>142.095</ele>
        <time>2016-08-11T11:24:09Z</time>
      </trkpt>
      <trkpt lat="43.94875" lon="0.47764">
        <ele>134.024</ele>
        <time>2016-08-11T11:24:09Z</time>
      </trkpt>
      <trkpt lat="43.94824" lon="0.47872">
        <ele>141.062</ele>
        <time>2016-08-11T11:24:09Z</time>
      </trkpt>
      <trkpt lat="43.94942" lon="0.47957">
        <ele>150.049</ele>
        <time>2016-08-11T11:24:09Z</time>
      </trkpt>
      <trkpt lat="43.94941" lon="0.47972">
        <ele>151.075</ele>
        <time>2016-08-11T11:24:09Z</time>
      </trkpt>
      <trkpt lat="43.94904" lon="0.48048">
        <ele>153.028</ele>
        <time>2016-08-11T11:24:09Z</time>
      </trkpt>
      <trkpt lat="43.94839" lon="0.48319">
        <ele>158.016</ele>
        <time>2016-08-11T11:24:09Z</time>
      </trkpt>
      <trkpt lat="43.94821" lon="0.48542">
        <ele>165.085</ele>
        <time>2016-08-11T11:24:09Z</time>
      </trkpt>
      <trkpt lat="43.94723" lon="0.48778">
        <ele>167.089</ele>
        <time>2016-08-11T11:24:09Z</time>
      </trkpt>
      <trkpt lat="43.94702" lon="0.48944">
        <ele>168.017</ele>
        <time>2016-08-11T11:24:09Z</time>
      </trkpt>
      <trkpt lat="43.94828" lon="0.48952">
        <ele>161.008</ele>
        <time>2016-08-11T11:24:09Z</time>
      </trkpt>
      <trkpt lat="43.94868" lon="0.48931">
        <ele>161.079</ele>
        <time>2016-08-11T11:24:09Z</time>
      </trkpt>
      <trkpt lat="43.94892" lon="0.48936">
        <ele>155.012</ele>
        <time>2016-08-11T11:24:09Z</time>
      </trkpt>
      <trkpt lat="43.95041" lon="0.48993">
        <ele>150.021</ele>
        <time>2016-08-11T11:24:09Z</time>
      </trkpt>
      <trkpt lat="43.95112" lon="0.49039">
        <ele>142.049</ele>
        <time>2016-08-11T11:24:09Z</time>
      </trkpt>
      <trkpt lat="43.95399" lon="0.48989">
        <ele>153.066</ele>
        <time>2016-08-11T11:24:09Z</time>
      </trkpt>
      <trkpt lat="43.95617" lon="0.49126">
        <ele>174.012</ele>
        <time>2016-08-11T11:24:09Z</time>
      </trkpt>
      <trkpt lat="43.95919" lon="0.49106">
        <ele>151.045</ele>
        <time>2016-08-11T11:24:09Z</time>
      </trkpt>
      <trkpt lat="43.96007" lon="0.49146">
        <ele>163.043</ele>
        <time>2016-08-11T11:24:09Z</time>
      </trkpt>
      <trkpt lat="43.96095" lon="0.49279">
        <ele>168.081</ele>
        <time>2016-08-11T11:24:09Z</time>
      </trkpt>
      <trkpt lat="43.96129" lon="0.49361">
        <ele>174.061</ele>
        <time>2016-08-11T11:24:09Z</time>
      </trkpt>
      <trkpt lat="43.96268" lon="0.49425">
        <ele>189.017</ele>
        <time>2016-08-11T11:24:09Z</time>
      </trkpt>
      <trkpt lat="43.96285" lon="0.49406">
        <ele>189.008</ele>
        <time>2016-08-11T11:24:09Z</time>
      </trkpt>
      <trkpt lat="43.96303" lon="0.49436">
        <ele>201.039</ele>
        <time>2016-08-11T11:24:09Z</time>
      </trkpt>
      <trkpt lat="43.96419" lon="0.49471">
        <ele>216.062</ele>
        <time>2016-08-11T11:24:09Z</time>
      </trkpt>
      <trkpt lat="43.9638" lon="0.4963">
        <ele>215.081</ele>
        <time>2016-08-11T11:24:09Z</time>
      </trkpt>
      <trkpt lat="43.96275" lon="0.49773">
        <ele>214.089</ele>
        <time>2016-08-11T11:24:09Z</time>
      </trkpt>
      <trkpt lat="43.96183" lon="0.50021">
        <ele>222.046</ele>
        <time>2016-08-11T11:24:09Z</time>
      </trkpt>
      <trkpt lat="43.9608" lon="0.50248">
        <ele>220.092</ele>
        <time>2016-08-11T11:24:09Z</time>
      </trkpt>
      <trkpt lat="43.95945" lon="0.50325">
        <ele>213.015</ele>
        <time>2016-08-11T11:24:09Z</time>
      </trkpt>
      <trkpt lat="43.95872" lon="0.50456">
        <ele>211.083</ele>
        <time>2016-08-11T11:24:09Z</time>
      </trkpt>
      <trkpt lat="43.95747" lon="0.5057">
        <ele>220.098</ele>
        <time>2016-08-11T11:24:09Z</time>
      </trkpt>
      <trkpt lat="43.95538" lon="0.50691">
        <ele>204.015</ele>
        <time>2016-08-11T11:24:09Z</time>
      </trkpt>
      <trkpt lat="43.95402" lon="0.50723">
        <ele>201.026</ele>
        <time>2016-08-11T11:24:09Z</time>
      </trkpt>
      <trkpt lat="43.95335" lon="0.50758">
        <ele>205.008</ele>
        <time>2016-08-11T11:24:09Z</time>
      </trkpt>
      <trkpt lat="43.95254" lon="0.50817">
        <ele>210.07</ele>
        <time>2016-08-11T11:24:09Z</time>
      </trkpt>
      <trkpt lat="43.95163" lon="0.50931">
        <ele>217.053</ele>
        <time>2016-08-11T11:24:09Z</time>
      </trkpt>
      <trkpt lat="43.9504" lon="0.50985">
        <ele>201.042</ele>
        <time>2016-08-11T11:24:09Z</time>
      </trkpt>
      <trkpt lat="43.9495" lon="0.50857">
        <ele>201.09</ele>
        <time>2016-08-11T11:24:09Z</time>
      </trkpt>
      <trkpt lat="43.94925" lon="0.50949">
        <ele>193.027</ele>
        <time>2016-08-11T11:24:09Z</time>
      </trkpt>
      <trkpt lat="43.9489" lon="0.51012">
        <ele>192.083</ele>
        <time>2016-08-11T11:24:09Z</time>
      </trkpt>
      <trkpt lat="43.9483" lon="0.51062">
        <ele>190.016</ele>
        <time>2016-08-11T11:24:09Z</time>
      </trkpt>
      <trkpt lat="43.94752" lon="0.51211">
        <ele>191.094</ele>
        <time>2016-08-11T11:24:09Z</time>
      </trkpt>
      <trkpt lat="43.94839" lon="0.51288">
        <ele>197.043</ele>
        <time>2016-08-11T11:24:09Z</time>
      </trkpt>
      <trkpt lat="43.94885" lon="0.51358">
        <ele>191.064</ele>
        <time>2016-08-11T11:24:09Z</time>
      </trkpt>
      <trkpt lat="43.94901" lon="0.5145">
        <ele>184.01</ele>
        <time>2016-08-11T11:24:09Z</time>
      </trkpt>
      <trkpt lat="43.95002" lon="0.51621">
        <ele>182.008</ele>
        <time>2016-08-11T11:24:09Z</time>
      </trkpt>
      <trkpt lat="43.95012" lon="0.51707">
        <ele>180.015</ele>
        <time>2016-08-11T11:24:09Z</time>
      </trkpt>
      <trkpt lat="43.95096" lon="0.51743">
        <ele>185.098</ele>
        <time>2016-08-11T11:24:09Z</time>
      </trkpt>
      <trkpt lat="43.95169" lon="0.51618">
        <ele>186.087</ele>
        <time>2016-08-11T11:24:09Z</time>
      </trkpt>
      <trkpt lat="43.95347" lon="0.52106">
        <ele>187.085</ele>
        <time>2016-08-11T11:24:09Z</time>
      </trkpt>
      <trkpt lat="43.95544" lon="0.52458">
        <ele>179.032</ele>
        <time>2016-08-11T11:24:09Z</time>
      </trkpt>
      <trkpt lat="43.95618" lon="0.52518">
        <ele>177.028</ele>
        <time>2016-08-11T11:24:09Z</time>
      </trkpt>
      <trkpt lat="43.95722" lon="0.52395">
        <ele>171.011</ele>
        <time>2016-08-11T11:24:09Z</time>
      </trkpt>
      <trkpt lat="43.95709" lon="0.52498">
        <ele>168.049</ele>
        <time>2016-08-11T11:24:09Z</time>
      </trkpt>
      <trkpt lat="43.9568" lon="0.5256">
        <ele>170.091</ele>
        <time>2016-08-11T11:24:09Z</time>
      </trkpt>
      <trkpt lat="43.95743" lon="0.52747">
        <ele>144.081</ele>
        <time>2016-08-11T11:24:09Z</time>
      </trkpt>
      <trkpt lat="43.95744" lon="0.52812">
        <ele>135.019</ele>
        <time>2016-08-11T11:24:09Z</time>
      </trkpt>
      <trkpt lat="43.95799" lon="0.52819">
        <ele>130.008</ele>
        <time>2016-08-11T11:24:09Z</time>
      </trkpt>
      <trkpt lat="43.95818" lon="0.52861">
        <ele>130.09</ele>
        <time>2016-08-11T11:24:09Z</time>
      </trkpt>
      <trkpt lat="43.95845" lon="0.5309">
        <ele>111.073</ele>
        <time>2016-08-11T11:24:09Z</time>
      </trkpt>
      <trkpt lat="43.95882" lon="0.53212">
        <ele>98.082</ele>
        <time>2016-08-11T11:24:09Z</time>
      </trkpt>
      <trkpt lat="43.95963" lon="0.53196">
        <ele>98.03</ele>
        <time>2016-08-11T11:24:09Z</time>
      </trkpt>
      <trkpt lat="43.96012" lon="0.53159">
        <ele>98.027</ele>
        <time>2016-08-11T11:24:09Z</time>
      </trkpt>
      <trkpt lat="43.96073" lon="0.53204">
        <ele>100.023</ele>
        <time>2016-08-11T11:24:09Z</time>
      </trkpt>
      <trkpt lat="43.96184" lon="0.5321">
        <ele>110.086</ele>
        <time>2016-08-11T11:24:09Z</time>
      </trkpt>
      <trkpt lat="43.9626" lon="0.53181">
        <ele>123.064</ele>
        <time>2016-08-11T11:24:09Z</time>
      </trkpt>
      <trkpt lat="43.96339" lon="0.53239">
        <ele>136.064</ele>
        <time>2016-08-11T11:24:09Z</time>
      </trkpt>
      <trkpt lat="43.96457" lon="0.53134">
        <ele>149.006</ele>
        <time>2016-08-11T11:24:09Z</time>
      </trkpt>
      <trkpt lat="43.96489" lon="0.53045">
        <ele>163.016</ele>
        <time>2016-08-11T11:24:09Z</time>
      </trkpt>
      <trkpt lat="43.96536" lon="0.53042">
        <ele>163.008</ele>
        <time>2016-08-11T11:24:09Z</time>
      </trkpt>
      <trkpt lat="43.96578" lon="0.53073">
        <ele>170.027</ele>
        <time>2016-08-11T11:24:09Z</time>
      </trkpt>
      <trkpt lat="43.96635" lon="0.53036">
        <ele>167.05</ele>
        <time>2016-08-11T11:24:09Z</time>
      </trkpt>
      <trkpt lat="43.96699" lon="0.53027">
        <ele>167.069</ele>
        <time>2016-08-11T11:24:09Z</time>
      </trkpt>
      <trkpt lat="43.96729" lon="0.52956">
        <ele>172.017</ele>
        <time>2016-08-11T11:24:09Z</time>
      </trkpt>
      <trkpt lat="43.96915" lon="0.52709">
        <ele>177.044</ele>
        <time>2016-08-11T11:24:09Z</time>
      </trkpt>
      <trkpt lat="43.96971" lon="0.52598">
        <ele>178.02</ele>
        <time>2016-08-11T11:24:09Z</time>
      </trkpt>
      <trkpt lat="43.97107" lon="0.52069">
        <ele>170.093</ele>
        <time>2016-08-11T11:24:09Z</time>
      </trkpt>
      <trkpt lat="43.97185" lon="0.51954">
        <ele>161.091</ele>
        <time>2016-08-11T11:24:09Z</time>
      </trkpt>
      <trkpt lat="43.97277" lon="0.51905">
        <ele>178.024</ele>
        <time>2016-08-11T11:24:09Z</time>
      </trkpt>
      <trkpt lat="43.9734" lon="0.51847">
        <ele>180.004</ele>
        <time>2016-08-11T11:24:09Z</time>
      </trkpt>
      <trkpt lat="43.97463" lon="0.51517">
        <ele>183.014</ele>
        <time>2016-08-11T11:24:09Z</time>
      </trkpt>
      <trkpt lat="43.97652" lon="0.51335">
        <ele>188.008</ele>
        <time>2016-08-11T11:24:09Z</time>
      </trkpt>
      <trkpt lat="43.97692" lon="0.51185">
        <ele>190.063</ele>
        <time>2016-08-11T11:24:09Z</time>
      </trkpt>
      <trkpt lat="43.97792" lon="0.51024">
        <ele>188.016</ele>
        <time>2016-08-11T11:24:09Z</time>
      </trkpt>
      <trkpt lat="43.97834" lon="0.50782">
        <ele>191.095</ele>
        <time>2016-08-11T11:24:09Z</time>
      </trkpt>
      <trkpt lat="43.97889" lon="0.50659">
        <ele>194.043</ele>
        <time>2016-08-11T11:24:09Z</time>
      </trkpt>
      <trkpt lat="43.97941" lon="0.50487">
        <ele>195.06</ele>
        <time>2016-08-11T11:24:09Z</time>
      </trkpt>
      <trkpt lat="43.98065" lon="0.50349">
        <ele>196.076</ele>
        <time>2016-08-11T11:24:09Z</time>
      </trkpt>
      <trkpt lat="43.98099" lon="0.50256">
        <ele>194.059</ele>
        <time>2016-08-11T11:24:09Z</time>
      </trkpt>
      <trkpt lat="43.98086" lon="0.49993">
        <ele>189.067</ele>
        <time>2016-08-11T11:24:09Z</time>
      </trkpt>
      <trkpt lat="43.98131" lon="0.49928">
        <ele>191.063</ele>
        <time>2016-08-11T11:24:09Z</time>
      </trkpt>
      <trkpt lat="43.98147" lon="0.49901">
        <ele>187</ele>
      </trkpt>
      <trkpt lat="43.98172" lon="0.49844">
        <ele>187</ele>
        <time>2016-08-11T11:24:09Z</time>
      </trkpt>
      <trkpt lat="43.98191" lon="0.49796">
        <ele>187.9</ele>
        <time>2016-08-11T11:24:09Z</time>
      </trkpt>
      <trkpt lat="43.98201" lon="0.49743">
        <ele>186.7</ele>
      </trkpt>
      <trkpt lat="43.98224" lon="0.49634">
        <ele>185.9</ele>
        <time>2016-08-11T11:24:09Z</time>
      </trkpt>
      <trkpt lat="43.98229" lon="0.49599">
        <ele>185</ele>
      </trkpt>
      <trkpt lat="43.98256" lon="0.49664">
        <ele>183.1</ele>
      </trkpt>
      <trkpt lat="43.98266" lon="0.4973">
        <ele>183.5</ele>
      </trkpt>
      <trkpt lat="43.98268" lon="0.498">
        <ele>183.4</ele>
        <time>2016-08-11T11:24:09Z</time>
      </trkpt>
      <trkpt lat="43.98428" lon="0.49909">
        <ele>180.026</ele>
        <time>2016-08-11T11:24:09Z</time>
      </trkpt>
      <trkpt lat="43.98481" lon="0.50023">
        <ele>178.008</ele>
        <time>2016-08-11T11:24:09Z</time>
      </trkpt>
      <trkpt lat="43.98517" lon="0.50065">
        <ele>181.008</ele>
        <time>2016-08-11T11:24:09Z</time>
      </trkpt>
      <trkpt lat="43.98601" lon="0.50088">
        <ele>179.043</ele>
        <time>2016-08-11T11:24:09Z</time>
      </trkpt>
      <trkpt lat="43.98651" lon="0.50124">
        <ele>177.026</ele>
        <time>2016-08-11T11:24:09Z</time>
      </trkpt>
      <trkpt lat="43.98825" lon="0.5009">
        <ele>168.095</ele>
        <time>2016-08-11T11:24:09Z</time>
      </trkpt>
      <trkpt lat="43.98961" lon="0.50105">
        <ele>151.063</ele>
        <time>2016-08-11T11:24:09Z</time>
      </trkpt>
      <trkpt lat="43.99073" lon="0.50095">
        <ele>148.05</ele>
        <time>2016-08-11T11:24:09Z</time>
      </trkpt>
      <trkpt lat="43.99216" lon="0.5023">
        <ele>147.056</ele>
        <time>2016-08-11T11:24:09Z</time>
      </trkpt>
      <trkpt lat="43.99252" lon="0.50134">
        <ele>142.059</ele>
        <time>2016-08-11T11:24:09Z</time>
      </trkpt>
      <trkpt lat="43.99532" lon="0.50162">
        <ele>141.077</ele>
        <time>2016-08-11T11:24:09Z</time>
      </trkpt>
      <trkpt lat="43.99622" lon="0.50205">
        <ele>142.052</ele>
        <time>2016-08-11T11:24:09Z</time>
      </trkpt>
      <trkpt lat="43.99644" lon="0.50136">
        <ele>143.053</ele>
        <time>2016-08-11T11:24:09Z</time>
      </trkpt>
      <trkpt lat="43.99699" lon="0.50124">
        <ele>146.008</ele>
        <time>2016-08-11T11:24:09Z</time>
      </trkpt>
      <trkpt lat="43.9978" lon="0.5004">
        <ele>153.008</ele>
        <time>2016-08-11T11:24:09Z</time>
      </trkpt>
      <trkpt lat="43.99885" lon="0.50034">
        <ele>178.086</ele>
        <time>2016-08-11T11:24:09Z</time>
      </trkpt>
      <trkpt lat="43.99964" lon="0.5007">
        <ele>181.049</ele>
        <time>2016-08-11T11:24:09Z</time>
      </trkpt>
      <trkpt lat="43.99994" lon="0.49996">
        <ele>187.028</ele>
        <time>2016-08-11T11:24:09Z</time>
      </trkpt>
      <trkpt lat="44.00045" lon="0.49923">
        <ele>191.076</ele>
        <time>2016-08-11T11:24:09Z</time>
      </trkpt>
      <trkpt lat="44.00066" lon="0.49854">
        <ele>190.043</ele>
        <time>2016-08-11T11:24:09Z</time>
      </trkpt>
      <trkpt lat="44.00238" lon="0.49742">
        <ele>183.089</ele>
        <time>2016-08-11T11:24:09Z</time>
      </trkpt>
      <trkpt lat="44.00302" lon="0.49684">
        <ele>186.032</ele>
        <time>2016-08-11T11:24:09Z</time>
      </trkpt>
      <trkpt lat="44.00377" lon="0.49691">
        <ele>184.09</ele>
        <time>2016-08-11T11:24:09Z</time>
      </trkpt>
      <trkpt lat="44.00588" lon="0.49651">
        <ele>184.055</ele>
        <time>2016-08-11T11:24:09Z</time>
      </trkpt>
      <trkpt lat="44.00575" lon="0.49531">
        <ele>190.007</ele>
        <time>2016-08-11T11:24:09Z</time>
      </trkpt>
      <trkpt lat="44.00587" lon="0.49309">
        <ele>198.017</ele>
        <time>2016-08-11T11:24:09Z</time>
      </trkpt>
      <trkpt lat="44.00573" lon="0.49296">
        <ele>198.008</ele>
        <time>2016-08-11T11:24:09Z</time>
      </trkpt>
      <trkpt lat="44.00536" lon="0.493">
        <ele>200.076</ele>
        <time>2016-08-11T11:24:09Z</time>
      </trkpt>
      <trkpt lat="44.00508" lon="0.4928">
        <ele>202.039</ele>
        <time>2016-08-11T11:24:09Z</time>
      </trkpt>
      <trkpt lat="44.00315" lon="0.4901">
        <ele>212.068</ele>
        <time>2016-08-11T11:24:09Z</time>
      </trkpt>
      <trkpt lat="44.00242" lon="0.4887">
        <ele>223.036</ele>
        <time>2016-08-11T11:24:09Z</time>
      </trkpt>
      <trkpt lat="44.00196" lon="0.48685">
        <ele>225.033</ele>
        <time>2016-08-11T11:24:09Z</time>
      </trkpt>
      <trkpt lat="44.00316" lon="0.48517">
        <ele>211.039</ele>
        <time>2016-08-11T11:24:09Z</time>
      </trkpt>
      <trkpt lat="44.00311" lon="0.48488">
        <ele>211.022</ele>
        <time>2016-08-11T11:24:09Z</time>
      </trkpt>
      <trkpt lat="44.0041" lon="0.48295">
        <ele>200.09</ele>
        <time>2016-08-11T11:24:09Z</time>
      </trkpt>
      <trkpt lat="44.00503" lon="0.48197">
        <ele>190.099</ele>
        <time>2016-08-11T11:24:09Z</time>
      </trkpt>
      <trkpt lat="44.00582" lon="0.48179">
        <ele>184.007</ele>
        <time>2016-08-11T11:24:09Z</time>
      </trkpt>
      <trkpt lat="44.00664" lon="0.4819">
        <ele>180.027</ele>
        <time>2016-08-11T11:24:09Z</time>
      </trkpt>
      <trkpt lat="44.00749" lon="0.47979">
        <ele>173.008</ele>
        <time>2016-08-11T11:24:09Z</time>
      </trkpt>
      <trkpt lat="44.00785" lon="0.47948">
        <ele>168.02</ele>
        <time>2016-08-11T11:24:09Z</time>
      </trkpt>
      <trkpt lat="44.00811" lon="0.47843">
        <ele>158.083</ele>
        <time>2016-08-11T11:24:09Z</time>
      </trkpt>
      <trkpt lat="44.00872" lon="0.4788">
        <ele>161.052</ele>
        <time>2016-08-11T11:24:09Z</time>
      </trkpt>
      <trkpt lat="44.0088" lon="0.47707">
        <ele>140.01</ele>
        <time>2016-08-11T11:24:09Z</time>
      </trkpt>
      <trkpt lat="44.00853" lon="0.47615">
        <ele>146.057</ele>
        <time>2016-08-11T11:24:09Z</time>
      </trkpt>
      <trkpt lat="44.00853" lon="0.47538">
        <ele>153.013</ele>
        <time>2016-08-11T11:24:09Z</time>
      </trkpt>
      <trkpt lat="44.00831" lon="0.47492">
        <ele>153.086</ele>
        <time>2016-08-11T11:24:09Z</time>
      </trkpt>
      <trkpt lat="44.00827" lon="0.47387">
        <ele>156.024</ele>
        <time>2016-08-11T11:24:09Z</time>
      </trkpt>
      <trkpt lat="44.00839" lon="0.47139">
        <ele>161.019</ele>
        <time>2016-08-11T11:24:09Z</time>
      </trkpt>
      <trkpt lat="44.00904" lon="0.47">
        <ele>150.009</ele>
        <time>2016-08-11T11:24:09Z</time>
      </trkpt>
      <trkpt lat="44.00882" lon="0.46919">
        <ele>151.019</ele>
        <time>2016-08-11T11:24:09Z</time>
      </trkpt>
      <trkpt lat="44.00895" lon="0.46836">
        <ele>156.008</ele>
        <time>2016-08-11T11:24:09Z</time>
      </trkpt>
      <trkpt lat="44.00929" lon="0.46708">
        <ele>164.062</ele>
        <time>2016-08-11T11:24:09Z</time>
      </trkpt>
      <trkpt lat="44.00956" lon="0.46674">
        <ele>164.065</ele>
        <time>2016-08-11T11:24:09Z</time>
      </trkpt>
      <trkpt lat="44.0098" lon="0.46676">
        <ele>157.084</ele>
        <time>2016-08-11T11:24:09Z</time>
      </trkpt>
      <trkpt lat="44.01024" lon="0.46637">
        <ele>157.092</ele>
        <time>2016-08-11T11:24:09Z</time>
      </trkpt>
      <trkpt lat="44.01089" lon="0.46409">
        <ele>161.019</ele>
        <time>2016-08-11T11:24:09Z</time>
      </trkpt>
      <trkpt lat="44.01187" lon="0.46421">
        <ele>159.035</ele>
        <time>2016-08-11T11:24:09Z</time>
      </trkpt>
      <trkpt lat="44.01097" lon="0.46238">
        <ele>176.098</ele>
        <time>2016-08-11T11:24:09Z</time>
      </trkpt>
      <trkpt lat="44.01093" lon="0.46185">
        <ele>176.046</ele>
        <time>2016-08-11T11:24:09Z</time>
      </trkpt>
      <trkpt lat="44.01014" lon="0.46052">
        <ele>179.054</ele>
        <time>2016-08-11T11:24:09Z</time>
      </trkpt>
      <trkpt lat="44.00966" lon="0.45936">
        <ele>169.056</ele>
        <time>2016-08-11T11:24:09Z</time>
      </trkpt>
      <trkpt lat="44.00882" lon="0.45784">
        <ele>166.011</ele>
        <time>2016-08-11T11:24:09Z</time>
      </trkpt>
      <trkpt lat="44.00799" lon="0.45674">
        <ele>169.008</ele>
        <time>2016-08-11T11:24:09Z</time>
      </trkpt>
      <trkpt lat="44.0079" lon="0.4567">
        <ele>171.6</ele>
      </trkpt>
      <trkpt lat="44.00785" lon="0.45624">
        <ele>171.7</ele>
      </trkpt>
      <trkpt lat="44.00781" lon="0.45583">
        <ele>171.9</ele>
      </trkpt>
      <trkpt lat="44.00775" lon="0.45542">
        <ele>172.8</ele>
      </trkpt>
      <trkpt lat="44.00772" lon="0.45516">
        <ele>172.5</ele>
      </trkpt>
      <trkpt lat="44.00771" lon="0.45507">
        <ele>172.5</ele>
      </trkpt>
      <trkpt lat="44.00771" lon="0.45492">
        <ele>172.5</ele>
      </trkpt>
      <trkpt lat="44.00774" lon="0.45471">
        <ele>172.7</ele>
      </trkpt>
      <trkpt lat="44.00778" lon="0.45447">
        <ele>172.1</ele>
      </trkpt>
      <trkpt lat="44.00795" lon="0.4538">
        <ele>172.2</ele>
      </trkpt>
      <trkpt lat="44.00808" lon="0.45329">
        <ele>173.1</ele>
      </trkpt>
      <trkpt lat="44.00816" lon="0.45299">
        <ele>173.9</ele>
      </trkpt>
      <trkpt lat="44.00822" lon="0.45269">
        <ele>174.7</ele>
      </trkpt>
      <trkpt lat="44.00825" lon="0.45253">
        <ele>175.2</ele>
      </trkpt>
      <trkpt lat="44.00828" lon="0.45239">
        <ele>175.3</ele>
      </trkpt>
      <trkpt lat="44.00828" lon="0.45234">
        <ele>175.3</ele>
      </trkpt>
      <trkpt lat="44.00827" lon="0.45166">
        <ele>176.2</ele>
      </trkpt>
      <trkpt lat="44.00827" lon="0.45136">
        <ele>176.2</ele>
      </trkpt>
      <trkpt lat="44.00827" lon="0.45118">
        <ele>176.2</ele>
      </trkpt>
      <trkpt lat="44.00826" lon="0.45113">
        <ele>176.3</ele>
      </trkpt>
      <trkpt lat="44.00825" lon="0.45112">
        <ele>176.3</ele>
      </trkpt>
      <trkpt lat="44.0082" lon="0.45107">
        <ele>176.7</ele>
      </trkpt>
      <trkpt lat="44.00816" lon="0.45104">
        <ele>177</ele>
      </trkpt>
      <trkpt lat="44.0081" lon="0.451">
        <ele>177.3</ele>
      </trkpt>
      <trkpt lat="44.00787" lon="0.45085">
        <ele>177.4</ele>
      </trkpt>
      <trkpt lat="44.00782" lon="0.45081">
        <ele>177.2</ele>
      </trkpt>
      <trkpt lat="44.00779" lon="0.45076">
        <ele>177.3</ele>
      </trkpt>
      <trkpt lat="44.00777" lon="0.45071">
        <ele>177.5</ele>
      </trkpt>
      <trkpt lat="44.00775" lon="0.45064">
        <ele>177.7</ele>
      </trkpt>
      <trkpt lat="44.00775" lon="0.45057">
        <ele>177.9</ele>
      </trkpt>
      <trkpt lat="44.00774" lon="0.45052">
        <ele>178</ele>
      </trkpt>
      <trkpt lat="44.00777" lon="0.45028">
        <ele>178</ele>
      </trkpt>
      <trkpt lat="44.0075" lon="0.45017">
        <ele>177</ele>
      </trkpt>
      <trkpt lat="44.00746" lon="0.45015">
        <ele>176.9</ele>
      </trkpt>
      <trkpt lat="44.00737" lon="0.45012">
        <ele>176.7</ele>
      </trkpt>
      <trkpt lat="44.00723" lon="0.45007">
        <ele>176.3</ele>
      </trkpt>
      <trkpt lat="44.00704" lon="0.44999">
        <ele>174.7</ele>
      </trkpt>
      <trkpt lat="44.00686" lon="0.44989">
        <ele>171.7</ele>
      </trkpt>
      <trkpt lat="44.00669" lon="0.44998">
        <ele>168.4</ele>
      </trkpt>
      <trkpt lat="44.00625" lon="0.44991">
        <ele>157.2</ele>
      </trkpt>
      <trkpt lat="44.00611" lon="0.44987">
        <ele>153.5</ele>
      </trkpt>
      <trkpt lat="44.00589" lon="0.44981">
        <ele>150.1</ele>
      </trkpt>
      <trkpt lat="44.00569" lon="0.44976">
        <ele>147.1</ele>
      </trkpt>
      <trkpt lat="44.00543" lon="0.44962">
        <ele>142.7</ele>
      </trkpt>
      <trkpt lat="44.00542" lon="0.44961">
        <ele>142.4</ele>
      </trkpt>
      <trkpt lat="44.00528" lon="0.44958">
        <ele>140</ele>
      </trkpt>
      <trkpt lat="44.00521" lon="0.44956">
        <ele>138.5</ele>
      </trkpt>
      <trkpt lat="44.00508" lon="0.4495">
        <ele>135.7</ele>
      </trkpt>
      <trkpt lat="44.00499" lon="0.44945">
        <ele>133.9</ele>
      </trkpt>
      <trkpt lat="44.00489" lon="0.44939">
        <ele>131.5</ele>
      </trkpt>
      <trkpt lat="44.00438" lon="0.44906">
        <ele>120.4</ele>
      </trkpt>
      <trkpt lat="44.00422" lon="0.44895">
        <ele>117.9</ele>
      </trkpt>
      <trkpt lat="44.0041" lon="0.44886">
        <ele>115.9</ele>
      </trkpt>
      <trkpt lat="44.00386" lon="0.44868">
        <ele>112</ele>
      </trkpt>
      <trkpt lat="44.00379" lon="0.44863">
        <ele>111</ele>
      </trkpt>
      <trkpt lat="44.00371" lon="0.44859">
        <ele>109.9</ele>
      </trkpt>
      <trkpt lat="44.00343" lon="0.44847">
        <ele>106.9</ele>
      </trkpt>
      <trkpt lat="44.00321" lon="0.44837">
        <ele>106</ele>
      </trkpt>
      <trkpt lat="44.00318" lon="0.44836">
        <ele>106</ele>
      </trkpt>
      <trkpt lat="44.00304" lon="0.44829">
        <ele>106.1</ele>
      </trkpt>
      <trkpt lat="44.00297" lon="0.44826">
        <ele>106.7</ele>
      </trkpt>
      <trkpt lat="44.0029" lon="0.44821">
        <ele>107.4</ele>
      </trkpt>
      <trkpt lat="44.00284" lon="0.44809">
        <ele>108.3</ele>
      </trkpt>
      <trkpt lat="44.00277" lon="0.44791">
        <ele>109.1</ele>
      </trkpt>
      <trkpt lat="44.00261" lon="0.44753">
        <ele>110.2</ele>
      </trkpt>
      <trkpt lat="44.00242" lon="0.44711">
        <ele>109.3</ele>
      </trkpt>
      <trkpt lat="44.00238" lon="0.44696">
        <ele>109.4</ele>
      </trkpt>
      <trkpt lat="44.00233" lon="0.4468">
        <ele>109.8</ele>
      </trkpt>
      <trkpt lat="44.00223" lon="0.44657">
        <ele>110.9</ele>
      </trkpt>
      <trkpt lat="44.00215" lon="0.44641">
        <ele>111.8</ele>
      </trkpt>
      <trkpt lat="44.00206" lon="0.44624">
        <ele>112.8</ele>
      </trkpt>
      <trkpt lat="44.002" lon="0.44611">
        <ele>113.4</ele>
      </trkpt>
      <trkpt lat="44.00197" lon="0.44602">
        <ele>113.5</ele>
      </trkpt>
      <trkpt lat="44.0019" lon="0.44578">
        <ele>113.2</ele>
      </trkpt>
      <trkpt lat="44.00182" lon="0.44554">
        <ele>113.4</ele>
      </trkpt>
      <trkpt lat="44.00173" lon="0.44531">
        <ele>114.3</ele>
      </trkpt>
      <trkpt lat="44.00171" lon="0.44518">
        <ele>114.6</ele>
      </trkpt>
      <trkpt lat="44.0017" lon="0.44506">
        <ele>114.7</ele>
      </trkpt>
      <trkpt lat="44.00169" lon="0.44492">
        <ele>114.5</ele>
      </trkpt>
      <trkpt lat="44.00167" lon="0.44473">
        <ele>114</ele>
      </trkpt>
      <trkpt lat="44.00165" lon="0.44468">
        <ele>114</ele>
      </trkpt>
      <trkpt lat="44.00162" lon="0.44464">
        <ele>114.2</ele>
      </trkpt>
      <trkpt lat="44.00156" lon="0.44459">
        <ele>114.7</ele>
      </trkpt>
      <trkpt lat="44.00144" lon="0.44453">
        <ele>115.7</ele>
      </trkpt>
      <trkpt lat="44.00133" lon="0.44449">
        <ele>116.4</ele>
      </trkpt>
      <trkpt lat="44.00119" lon="0.44444">
        <ele>116.7</ele>
      </trkpt>
      <trkpt lat="44.00108" lon="0.4444">
        <ele>117.2</ele>
      </trkpt>
      <trkpt lat="44.00102" lon="0.44434">
        <ele>117.7</ele>
      </trkpt>
      <trkpt lat="44.00096" lon="0.44428">
        <ele>118</ele>
      </trkpt>
      <trkpt lat="44.00093" lon="0.44417">
        <ele>118</ele>
      </trkpt>
      <trkpt lat="44.00086" lon="0.44386">
        <ele>117.7</ele>
      </trkpt>
      <trkpt lat="44.00083" lon="0.44363">
        <ele>117.1</ele>
      </trkpt>
      <trkpt lat="44.00081" lon="0.44351">
        <ele>116.8</ele>
      </trkpt>
      <trkpt lat="44.00078" lon="0.44341">
        <ele>116.6</ele>
      </trkpt>
      <trkpt lat="44.00075" lon="0.44333">
        <ele>116.6</ele>
      </trkpt>
      <trkpt lat="44.00071" lon="0.44327">
        <ele>116.8</ele>
      </trkpt>
      <trkpt lat="44.0006" lon="0.44313">
        <ele>117.5</ele>
      </trkpt>
      <trkpt lat="44.00046" lon="0.44296">
        <ele>118.9</ele>
      </trkpt>
      <trkpt lat="44.00031" lon="0.44279">
        <ele>119.8</ele>
      </trkpt>
      <trkpt lat="44.00015" lon="0.44263">
        <ele>121.1</ele>
      </trkpt>
      <trkpt lat="43.99994" lon="0.44235">
        <ele>122.5</ele>
      </trkpt>
      <trkpt lat="43.99985" lon="0.44228">
        <ele>123.2</ele>
      </trkpt>
      <trkpt lat="43.99975" lon="0.44226">
        <ele>123.9</ele>
      </trkpt>
      <trkpt lat="43.99955" lon="0.44221">
        <ele>126.4</ele>
      </trkpt>
      <trkpt lat="43.99943" lon="0.44213">
        <ele>127.8</ele>
      </trkpt>
      <trkpt lat="43.99936" lon="0.44203">
        <ele>128.7</ele>
      </trkpt>
      <trkpt lat="43.99925" lon="0.44184">
        <ele>130.3</ele>
      </trkpt>
      <trkpt lat="43.99901" lon="0.44141">
        <ele>131.9</ele>
      </trkpt>
      <trkpt lat="43.99889" lon="0.44117">
        <ele>132.4</ele>
      </trkpt>
      <trkpt lat="43.99856" lon="0.44059">
        <ele>126.9</ele>
      </trkpt>
      <trkpt lat="43.99839" lon="0.4403">
        <ele>121.4</ele>
      </trkpt>
      <trkpt lat="43.99829" lon="0.44017">
        <ele>118.6</ele>
      </trkpt>
      <trkpt lat="43.99815" lon="0.44004">
        <ele>116.2</ele>
      </trkpt>
      <trkpt lat="43.99783" lon="0.43978">
        <ele>111</ele>
      </trkpt>
      <trkpt lat="43.99773" lon="0.4397">
        <ele>109.5</ele>
      </trkpt>
      <trkpt lat="43.99761" lon="0.43962">
        <ele>107.9</ele>
      </trkpt>
      <trkpt lat="43.99749" lon="0.43954">
        <ele>106</ele>
      </trkpt>
      <trkpt lat="43.99717" lon="0.43932">
        <ele>100.4</ele>
      </trkpt>
      <trkpt lat="43.99705" lon="0.43921">
        <ele>98.7</ele>
      </trkpt>
      <trkpt lat="43.99696" lon="0.43909">
        <ele>97.5</ele>
      </trkpt>
      <trkpt lat="43.99688" lon="0.43897">
        <ele>96.3</ele>
      </trkpt>
      <trkpt lat="43.99684" lon="0.43886">
        <ele>95.6</ele>
      </trkpt>
      <trkpt lat="43.99684" lon="0.43872">
        <ele>95.6</ele>
      </trkpt>
      <trkpt lat="43.99688" lon="0.43849">
        <ele>95.3</ele>
      </trkpt>
      <trkpt lat="43.99691" lon="0.43826">
        <ele>94.6</ele>
      </trkpt>
      <trkpt lat="43.99691" lon="0.4381">
        <ele>94.1</ele>
      </trkpt>
      <trkpt lat="43.99685" lon="0.43799">
        <ele>94</ele>
      </trkpt>
      <trkpt lat="43.9967" lon="0.43782">
        <ele>94</ele>
      </trkpt>
      <trkpt lat="43.99657" lon="0.43769">
        <ele>94</ele>
      </trkpt>
      <trkpt lat="43.99645" lon="0.43748">
        <ele>94</ele>
      </trkpt>
      <trkpt lat="43.99634" lon="0.43726">
        <ele>94.2</ele>
      </trkpt>
      <trkpt lat="43.99623" lon="0.4371">
        <ele>95.2</ele>
      </trkpt>
      <trkpt lat="43.99606" lon="0.4369">
        <ele>97.3</ele>
      </trkpt>
      <trkpt lat="43.99592" lon="0.43672">
        <ele>97.9</ele>
      </trkpt>
      <trkpt lat="43.99586" lon="0.43657">
        <ele>98.3</ele>
      </trkpt>
      <trkpt lat="43.99584" lon="0.43642">
        <ele>98.9</ele>
      </trkpt>
      <trkpt lat="43.99584" lon="0.43623">
        <ele>99</ele>
      </trkpt>
      <trkpt lat="43.99589" lon="0.43589">
        <ele>99.2</ele>
      </trkpt>
      <trkpt lat="43.99592" lon="0.43576">
        <ele>99.1</ele>
      </trkpt>
      <trkpt lat="43.99595" lon="0.43557">
        <ele>98.9</ele>
      </trkpt>
      <trkpt lat="43.99603" lon="0.43505">
        <ele>98.4</ele>
      </trkpt>
      <trkpt lat="43.99606" lon="0.43476">
        <ele>97.9</ele>
      </trkpt>
      <trkpt lat="43.99605" lon="0.43447">
        <ele>97.8</ele>
      </trkpt>
      <trkpt lat="43.99602" lon="0.43405">
        <ele>98.3</ele>
      </trkpt>
      <trkpt lat="43.99596" lon="0.43336">
        <ele>99.4</ele>
      </trkpt>
      <trkpt lat="43.99591" lon="0.43268">
        <ele>100.3</ele>
      </trkpt>
      <trkpt lat="43.99589" lon="0.43245">
        <ele>100.8</ele>
      </trkpt>
      <trkpt lat="43.99592" lon="0.43228">
        <ele>101.5</ele>
      </trkpt>
      <trkpt lat="43.99598" lon="0.43212">
        <ele>102.2</ele>
      </trkpt>
      <trkpt lat="43.99625" lon="0.4317">
        <ele>104.5</ele>
      </trkpt>
      <trkpt lat="43.99629" lon="0.43165">
        <ele>104.6</ele>
      </trkpt>
      <trkpt lat="43.99635" lon="0.43165">
        <ele>104.8</ele>
      </trkpt>
      <trkpt lat="43.99646" lon="0.43169">
        <ele>105.7</ele>
      </trkpt>
      <trkpt lat="43.99682" lon="0.43186">
        <ele>107.4</ele>
      </trkpt>
      <trkpt lat="43.99688" lon="0.43183">
        <ele>108.6</ele>
      </trkpt>
      <trkpt lat="43.99695" lon="0.43176">
        <ele>109.7</ele>
      </trkpt>
      <trkpt lat="43.99724" lon="0.43092">
        <ele>115.7</ele>
      </trkpt>
      <trkpt lat="43.99754" lon="0.42976">
        <ele>122</ele>
      </trkpt>
      <trkpt lat="43.99792" lon="0.42848">
        <ele>128.2</ele>
      </trkpt>
      <trkpt lat="43.9983" lon="0.42729">
        <ele>133.4</ele>
      </trkpt>
      <trkpt lat="43.99865" lon="0.42643">
        <ele>135.7</ele>
      </trkpt>
      <trkpt lat="43.99871" lon="0.42635">
        <ele>135.7</ele>
      </trkpt>
      <trkpt lat="43.99881" lon="0.42626">
        <ele>135.6</ele>
      </trkpt>
      <trkpt lat="43.99884" lon="0.4262">
        <ele>135.7</ele>
      </trkpt>
      <trkpt lat="43.99913" lon="0.42503">
        <ele>139.9</ele>
      </trkpt>
      <trkpt lat="43.99913" lon="0.42492">
        <ele>140.6</ele>
      </trkpt>
      <trkpt lat="43.99914" lon="0.4248">
        <ele>141.4</ele>
      </trkpt>
      <trkpt lat="43.99919" lon="0.42458">
        <ele>143</ele>
      </trkpt>
      <trkpt lat="43.99946" lon="0.42379">
        <ele>147.9</ele>
      </trkpt>
      <trkpt lat="43.99953" lon="0.42349">
        <ele>148.1</ele>
      </trkpt>
      <trkpt lat="43.99955" lon="0.42332">
        <ele>148.6</ele>
      </trkpt>
      <trkpt lat="43.9996" lon="0.4231">
        <ele>148.9</ele>
      </trkpt>
      <trkpt lat="43.99975" lon="0.42264">
        <ele>149</ele>
      </trkpt>
      <trkpt lat="43.99986" lon="0.42239">
        <ele>149.4</ele>
      </trkpt>
      <trkpt lat="44" lon="0.42201">
        <ele>150.7</ele>
      </trkpt>
      <trkpt lat="44.00009" lon="0.42156">
        <ele>151.1</ele>
      </trkpt>
      <trkpt lat="44.00017" lon="0.42121">
        <ele>152.4</ele>
      </trkpt>
      <trkpt lat="44.00021" lon="0.42107">
        <ele>153.2</ele>
      </trkpt>
      <trkpt lat="44.00033" lon="0.42072">
        <ele>155.1</ele>
      </trkpt>
      <trkpt lat="44.00043" lon="0.42045">
        <ele>156</ele>
      </trkpt>
      <trkpt lat="44.00049" lon="0.42022">
        <ele>157.2</ele>
      </trkpt>
      <trkpt lat="44.00054" lon="0.41993">
        <ele>158.2</ele>
      </trkpt>
      <trkpt lat="44.0006" lon="0.41952">
        <ele>158.8</ele>
      </trkpt>
      <trkpt lat="44.00065" lon="0.41919">
        <ele>158.7</ele>
      </trkpt>
      <trkpt lat="44.00075" lon="0.41837">
        <ele>159.3</ele>
      </trkpt>
      <trkpt lat="44.0008" lon="0.41793">
        <ele>160.2</ele>
      </trkpt>
      <trkpt lat="44.00085" lon="0.41756">
        <ele>161</ele>
      </trkpt>
      <trkpt lat="44.00089" lon="0.41727">
        <ele>162</ele>
      </trkpt>
      <trkpt lat="44.00091" lon="0.41707">
        <ele>162.4</ele>
      </trkpt>
      <trkpt lat="44.00091" lon="0.41666">
        <ele>163.6</ele>
      </trkpt>
      <trkpt lat="44.0009" lon="0.41605">
        <ele>165.8</ele>
      </trkpt>
      <trkpt lat="44.00088" lon="0.41584">
        <ele>167.1</ele>
      </trkpt>
      <trkpt lat="44.00088" lon="0.41566">
        <ele>167.8</ele>
      </trkpt>
      <trkpt lat="44.00087" lon="0.41534">
        <ele>168.9</ele>
      </trkpt>
      <trkpt lat="44.00086" lon="0.41461">
        <ele>170.5</ele>
      </trkpt>
      <trkpt lat="44.00086" lon="0.41453">
        <ele>170.8</ele>
      </trkpt>
      <trkpt lat="44.00087" lon="0.41448">
        <ele>171</ele>
      </trkpt>
      <trkpt lat="44.00088" lon="0.41442">
        <ele>171.2</ele>
      </trkpt>
      <trkpt lat="44.0009" lon="0.4143">
        <ele>171.2</ele>
      </trkpt>
      <trkpt lat="44.00094" lon="0.41396">
        <ele>171.6</ele>
      </trkpt>
      <trkpt lat="44.00097" lon="0.41365">
        <ele>172</ele>
      </trkpt>
      <trkpt lat="44.00098" lon="0.41348">
        <ele>172.3</ele>
      </trkpt>
      <trkpt lat="44.00099" lon="0.41335">
        <ele>172.5</ele>
      </trkpt>
      <trkpt lat="44.00099" lon="0.41321">
        <ele>172.6</ele>
      </trkpt>
      <trkpt lat="44.00098" lon="0.41305">
        <ele>172.5</ele>
      </trkpt>
      <trkpt lat="44.00095" lon="0.4127">
        <ele>171.5</ele>
      </trkpt>
      <trkpt lat="44.0009" lon="0.41262">
        <ele>171.5</ele>
      </trkpt>
      <trkpt lat="44.00085" lon="0.41257">
        <ele>171.3</ele>
      </trkpt>
      <trkpt lat="44.00042" lon="0.41215">
        <ele>170.3</ele>
      </trkpt>
      <trkpt lat="43.99995" lon="0.41168">
        <ele>170.2</ele>
      </trkpt>
      <trkpt lat="43.99955" lon="0.41129">
        <ele>170.9</ele>
      </trkpt>
      <trkpt lat="43.99924" lon="0.41106">
        <ele>172.4</ele>
      </trkpt>
      <trkpt lat="43.99899" lon="0.41092">
        <ele>174.3</ele>
      </trkpt>
      <trkpt lat="43.99866" lon="0.41078">
        <ele>176.8</ele>
      </trkpt>
      <trkpt lat="43.99839" lon="0.41068">
        <ele>177.1</ele>
      </trkpt>
      <trkpt lat="43.99814" lon="0.41063">
        <ele>176.3</ele>
      </trkpt>
      <trkpt lat="43.99797" lon="0.41061">
        <ele>175.2</ele>
      </trkpt>
      <trkpt lat="43.99749" lon="0.41058">
        <ele>172.1</ele>
      </trkpt>
      <trkpt lat="43.9974" lon="0.41057">
        <ele>171.7</ele>
      </trkpt>
      <trkpt lat="43.99731" lon="0.41056">
        <ele>171.3</ele>
      </trkpt>
      <trkpt lat="43.99724" lon="0.41053">
        <ele>171.1</ele>
      </trkpt>
      <trkpt lat="43.9971" lon="0.41046">
        <ele>171</ele>
      </trkpt>
      <trkpt lat="43.99685" lon="0.41031">
        <ele>170.1</ele>
      </trkpt>
      <trkpt lat="43.99676" lon="0.41025">
        <ele>170</ele>
      </trkpt>
      <trkpt lat="43.99646" lon="0.41006">
        <ele>170</ele>
      </trkpt>
      <trkpt lat="43.99636" lon="0.41002">
        <ele>169.9</ele>
      </trkpt>
      <trkpt lat="43.99626" lon="0.41002">
        <ele>169.5</ele>
      </trkpt>
      <trkpt lat="43.99612" lon="0.41">
        <ele>169</ele>
      </trkpt>
      <trkpt lat="43.99587" lon="0.40986">
        <ele>167.7</ele>
      </trkpt>
      <trkpt lat="43.99554" lon="0.4097">
        <ele>165.8</ele>
      </trkpt>
      <trkpt lat="43.99522" lon="0.40955">
        <ele>163</ele>
      </trkpt>
      <trkpt lat="43.99486" lon="0.40938">
        <ele>160</ele>
      </trkpt>
      <trkpt lat="43.99472" lon="0.40935">
        <ele>159</ele>
      </trkpt>
      <trkpt lat="43.99454" lon="0.40928">
        <ele>157.3</ele>
      </trkpt>
      <trkpt lat="43.99434" lon="0.40917">
        <ele>155.2</ele>
      </trkpt>
      <trkpt lat="43.99396" lon="0.4091">
        <ele>152.3</ele>
      </trkpt>
      <trkpt lat="43.99367" lon="0.40903">
        <ele>149.9</ele>
      </trkpt>
      <trkpt lat="43.99343" lon="0.40896">
        <ele>148.6</ele>
      </trkpt>
      <trkpt lat="43.99321" lon="0.40902">
        <ele>147.6</ele>
      </trkpt>
      <trkpt lat="43.99308" lon="0.40905">
        <ele>146.8</ele>
      </trkpt>
      <trkpt lat="43.99297" lon="0.40906">
        <ele>146.7</ele>
      </trkpt>
      <trkpt lat="43.99291" lon="0.40905">
        <ele>146.8</ele>
      </trkpt>
      <trkpt lat="43.99277" lon="0.40902">
        <ele>147.1</ele>
      </trkpt>
      <trkpt lat="43.9927" lon="0.40896">
        <ele>147.4</ele>
      </trkpt>
      <trkpt lat="43.99264" lon="0.4089">
        <ele>147.5</ele>
      </trkpt>
      <trkpt lat="43.99257" lon="0.40873">
        <ele>147.2</ele>
      </trkpt>
      <trkpt lat="43.99249" lon="0.40853">
        <ele>147.1</ele>
      </trkpt>
      <trkpt lat="43.99248" lon="0.40849">
        <ele>147.2</ele>
      </trkpt>
      <trkpt lat="43.99244" lon="0.40839">
        <ele>147.5</ele>
      </trkpt>
      <trkpt lat="43.99236" lon="0.40826">
        <ele>147.9</ele>
      </trkpt>
      <trkpt lat="43.99225" lon="0.40814">
        <ele>148.7</ele>
      </trkpt>
      <trkpt lat="43.99212" lon="0.40802">
        <ele>149.3</ele>
      </trkpt>
      <trkpt lat="43.99181" lon="0.40776">
        <ele>150</ele>
      </trkpt>
      <trkpt lat="43.99174" lon="0.4077">
        <ele>149.9</ele>
      </trkpt>
      <trkpt lat="43.99149" lon="0.40748">
        <ele>149.3</ele>
      </trkpt>
      <trkpt lat="43.99133" lon="0.4073">
        <ele>148.6</ele>
      </trkpt>
      <trkpt lat="43.99123" lon="0.40711">
        <ele>147.6</ele>
      </trkpt>
      <trkpt lat="43.99117" lon="0.40695">
        <ele>146.7</ele>
      </trkpt>
      <trkpt lat="43.99111" lon="0.40678">
        <ele>145.4</ele>
      </trkpt>
      <trkpt lat="43.99104" lon="0.40658">
        <ele>143.9</ele>
      </trkpt>
      <trkpt lat="43.99096" lon="0.40648">
        <ele>142.6</ele>
      </trkpt>
      <trkpt lat="43.99082" lon="0.40634">
        <ele>140.4</ele>
      </trkpt>
      <trkpt lat="43.99061" lon="0.40619">
        <ele>138.6</ele>
      </trkpt>
      <trkpt lat="43.99048" lon="0.40613">
        <ele>138.9</ele>
      </trkpt>
      <trkpt lat="43.9904" lon="0.40612">
        <ele>139.7</ele>
      </trkpt>
      <trkpt lat="43.99032" lon="0.40608">
        <ele>140.6</ele>
      </trkpt>
      <trkpt lat="43.99022" lon="0.406">
        <ele>142</ele>
      </trkpt>
      <trkpt lat="43.99" lon="0.40577">
        <ele>146.2</ele>
      </trkpt>
      <trkpt lat="43.98974" lon="0.40547">
        <ele>150.1</ele>
      </trkpt>
      <trkpt lat="43.98964" lon="0.40525">
        <ele>151.9</ele>
      </trkpt>
      <trkpt lat="43.98957" lon="0.40507">
        <ele>153.1</ele>
      </trkpt>
      <trkpt lat="43.98939" lon="0.40489">
        <ele>155.8</ele>
      </trkpt>
      <trkpt lat="43.98925" lon="0.40472">
        <ele>157.4</ele>
      </trkpt>
      <trkpt lat="43.98912" lon="0.40445">
        <ele>159.3</ele>
      </trkpt>
      <trkpt lat="43.98901" lon="0.40419">
        <ele>160.7</ele>
      </trkpt>
      <trkpt lat="43.98882" lon="0.40377">
        <ele>163.2</ele>
      </trkpt>
      <trkpt lat="43.98864" lon="0.40349">
        <ele>165.7</ele>
      </trkpt>
      <trkpt lat="43.98856" lon="0.40339">
        <ele>166.4</ele>
      </trkpt>
      <trkpt lat="43.98836" lon="0.40319">
        <ele>167.4</ele>
      </trkpt>
      <trkpt lat="43.98811" lon="0.40299">
        <ele>166.8</ele>
      </trkpt>
      <trkpt lat="43.98797" lon="0.40287">
        <ele>166</ele>
      </trkpt>
      <trkpt lat="43.98777" lon="0.40275">
        <ele>164.8</ele>
      </trkpt>
      <trkpt lat="43.98751" lon="0.40259">
        <ele>161.4</ele>
      </trkpt>
      <trkpt lat="43.98744" lon="0.40255">
        <ele>160.5</ele>
      </trkpt>
      <trkpt lat="43.9873" lon="0.40247">
        <ele>158.7</ele>
      </trkpt>
      <trkpt lat="43.98695" lon="0.40226">
        <ele>155.2</ele>
      </trkpt>
      <trkpt lat="43.98689" lon="0.40222">
        <ele>154.6</ele>
      </trkpt>
      <trkpt lat="43.98673" lon="0.40208">
        <ele>152.9</ele>
      </trkpt>
      <trkpt lat="43.98652" lon="0.40188">
        <ele>151.6</ele>
      </trkpt>
      <trkpt lat="43.98651" lon="0.40187">
        <ele>151.6</ele>
      </trkpt>
      <trkpt lat="43.98632" lon="0.40174">
        <ele>150.7</ele>
      </trkpt>
      <trkpt lat="43.98623" lon="0.40169">
        <ele>150.7</ele>
      </trkpt>
      <trkpt lat="43.98607" lon="0.40165">
        <ele>151</ele>
      </trkpt>
      <trkpt lat="43.98565" lon="0.40159">
        <ele>154.1</ele>
      </trkpt>
      <trkpt lat="43.98524" lon="0.40142">
        <ele>155.1</ele>
      </trkpt>
      <trkpt lat="43.9851" lon="0.40135">
        <ele>154.8</ele>
      </trkpt>
      <trkpt lat="43.985" lon="0.40129">
        <ele>154.7</ele>
      </trkpt>
      <trkpt lat="43.98483" lon="0.40118">
        <ele>154.9</ele>
      </trkpt>
      <trkpt lat="43.98434" lon="0.40085">
        <ele>155.4</ele>
      </trkpt>
      <trkpt lat="43.98416" lon="0.40073">
        <ele>155.3</ele>
      </trkpt>
      <trkpt lat="43.98401" lon="0.40061">
        <ele>155.3</ele>
      </trkpt>
      <trkpt lat="43.98393" lon="0.40055">
        <ele>155.6</ele>
      </trkpt>
      <trkpt lat="43.98386" lon="0.40045">
        <ele>155.7</ele>
      </trkpt>
      <trkpt lat="43.98381" lon="0.40033">
        <ele>155.4</ele>
      </trkpt>
      <trkpt lat="43.98377" lon="0.40023">
        <ele>155.3</ele>
      </trkpt>
      <trkpt lat="43.98372" lon="0.40017">
        <ele>155.5</ele>
      </trkpt>
      <trkpt lat="43.98363" lon="0.40014">
        <ele>155.9</ele>
      </trkpt>
      <trkpt lat="43.98346" lon="0.40011">
        <ele>156</ele>
      </trkpt>
      <trkpt lat="43.98337" lon="0.4001">
        <ele>156</ele>
      </trkpt>
      <trkpt lat="43.98332" lon="0.40007">
        <ele>155.9</ele>
      </trkpt>
      <trkpt lat="43.9832" lon="0.39996">
        <ele>155</ele>
      </trkpt>
      <trkpt lat="43.98285" lon="0.39956">
        <ele>153.5</ele>
      </trkpt>
      <trkpt lat="43.98262" lon="0.39928">
        <ele>151.8</ele>
      </trkpt>
      <trkpt lat="43.9824" lon="0.399">
        <ele>150.3</ele>
      </trkpt>
      <trkpt lat="43.98216" lon="0.3987">
        <ele>149</ele>
      </trkpt>
      <trkpt lat="43.98209" lon="0.39863">
        <ele>148.6</ele>
      </trkpt>
      <trkpt lat="43.98195" lon="0.3985">
        <ele>147.5</ele>
      </trkpt>
      <trkpt lat="43.98178" lon="0.3984">
        <ele>145.4</ele>
      </trkpt>
      <trkpt lat="43.9815" lon="0.39816">
        <ele>143</ele>
      </trkpt>
      <trkpt lat="43.98127" lon="0.39795">
        <ele>139.6</ele>
      </trkpt>
      <trkpt lat="43.98122" lon="0.39789">
        <ele>138.6</ele>
      </trkpt>
      <trkpt lat="43.98119" lon="0.39785">
        <ele>138.3</ele>
      </trkpt>
      <trkpt lat="43.98116" lon="0.39777">
        <ele>138</ele>
      </trkpt>
      <trkpt lat="43.98108" lon="0.39757">
        <ele>136.1</ele>
      </trkpt>
      <trkpt lat="43.98102" lon="0.39743">
        <ele>134.3</ele>
      </trkpt>
      <trkpt lat="43.98087" lon="0.3971">
        <ele>130</ele>
      </trkpt>
      <trkpt lat="43.98079" lon="0.39695">
        <ele>127.6</ele>
      </trkpt>
      <trkpt lat="43.98069" lon="0.39678">
        <ele>124.7</ele>
      </trkpt>
      <trkpt lat="43.9806" lon="0.3966">
        <ele>122.2</ele>
      </trkpt>
      <trkpt lat="43.98055" lon="0.39648">
        <ele>120.9</ele>
      </trkpt>
      <trkpt lat="43.98047" lon="0.39632">
        <ele>119.6</ele>
      </trkpt>
      <trkpt lat="43.98037" lon="0.39603">
        <ele>117.9</ele>
      </trkpt>
      <trkpt lat="43.98034" lon="0.39596">
        <ele>117.6</ele>
      </trkpt>
      <trkpt lat="43.98031" lon="0.3959">
        <ele>117.2</ele>
      </trkpt>
      <trkpt lat="43.98024" lon="0.39583">
        <ele>116.7</ele>
      </trkpt>
      <trkpt lat="43.98014" lon="0.39575">
        <ele>115.8</ele>
      </trkpt>
      <trkpt lat="43.97994" lon="0.39565">
        <ele>115.2</ele>
      </trkpt>
      <trkpt lat="43.97979" lon="0.39558">
        <ele>115.8</ele>
      </trkpt>
      <trkpt lat="43.97961" lon="0.39553">
        <ele>116.8</ele>
      </trkpt>
      <trkpt lat="43.97946" lon="0.39545">
        <ele>117.5</ele>
      </trkpt>
      <trkpt lat="43.97926" lon="0.39529">
        <ele>117.7</ele>
      </trkpt>
      <trkpt lat="43.97917" lon="0.3952">
        <ele>117.7</ele>
      </trkpt>
      <trkpt lat="43.97912" lon="0.39514">
        <ele>117.5</ele>
      </trkpt>
      <trkpt lat="43.97906" lon="0.395">
        <ele>117</ele>
      </trkpt>
      <trkpt lat="43.97899" lon="0.39481">
        <ele>116.8</ele>
      </trkpt>
      <trkpt lat="43.97891" lon="0.39458">
        <ele>116.9</ele>
      </trkpt>
      <trkpt lat="43.9788" lon="0.39421">
        <ele>118.2</ele>
      </trkpt>
      <trkpt lat="43.97874" lon="0.39402">
        <ele>119.6</ele>
      </trkpt>
      <trkpt lat="43.97868" lon="0.39381">
        <ele>121.4</ele>
      </trkpt>
      <trkpt lat="43.97858" lon="0.3935">
        <ele>124</ele>
      </trkpt>
      <trkpt lat="43.97849" lon="0.39324">
        <ele>126.5</ele>
      </trkpt>
      <trkpt lat="43.97841" lon="0.39305">
        <ele>128.5</ele>
      </trkpt>
      <trkpt lat="43.97828" lon="0.39278">
        <ele>130.4</ele>
      </trkpt>
      <trkpt lat="43.97805" lon="0.39232">
        <ele>134.7</ele>
      </trkpt>
      <trkpt lat="43.97793" lon="0.39213">
        <ele>137.1</ele>
      </trkpt>
      <trkpt lat="43.9779" lon="0.39211">
        <ele>137.5</ele>
      </trkpt>
      <trkpt lat="43.97727" lon="0.39232">
        <ele>142.8</ele>
      </trkpt>
      <trkpt lat="43.97713" lon="0.39238">
        <ele>143.4</ele>
      </trkpt>
      <trkpt lat="43.97702" lon="0.39239">
        <ele>143.8</ele>
      </trkpt>
      <trkpt lat="43.97691" lon="0.39239">
        <ele>144.3</ele>
      </trkpt>
      <trkpt lat="43.97678" lon="0.39237">
        <ele>144.7</ele>
      </trkpt>
      <trkpt lat="43.97594" lon="0.39207">
        <ele>146.4</ele>
      </trkpt>
      <trkpt lat="43.9759" lon="0.39204">
        <ele>146.6</ele>
      </trkpt>
      <trkpt lat="43.97582" lon="0.39198">
        <ele>146.9</ele>
      </trkpt>
      <trkpt lat="43.97564" lon="0.39188">
        <ele>147.1</ele>
      </trkpt>
      <trkpt lat="43.97545" lon="0.3918">
        <ele>147</ele>
      </trkpt>
      <trkpt lat="43.97534" lon="0.39176">
        <ele>147</ele>
      </trkpt>
      <trkpt lat="43.97483" lon="0.39161">
        <ele>146.9</ele>
      </trkpt>
      <trkpt lat="43.97419" lon="0.39166">
        <ele>147</ele>
      </trkpt>
      <trkpt lat="43.97401" lon="0.39165">
        <ele>147</ele>
      </trkpt>
      <trkpt lat="43.97386" lon="0.39163">
        <ele>147.1</ele>
      </trkpt>
      <trkpt lat="43.97372" lon="0.39159">
        <ele>147.6</ele>
      </trkpt>
      <trkpt lat="43.97326" lon="0.39151">
        <ele>150.8</ele>
      </trkpt>
      <trkpt lat="43.97303" lon="0.39148">
        <ele>153.1</ele>
      </trkpt>
      <trkpt lat="43.97281" lon="0.39143">
        <ele>154.6</ele>
      </trkpt>
      <trkpt lat="43.97275" lon="0.39139">
        <ele>154.9</ele>
      </trkpt>
      <trkpt lat="43.97266" lon="0.39132">
        <ele>154.5</ele>
      </trkpt>
      <trkpt lat="43.97264" lon="0.39132">
        <ele>154.4</ele>
      </trkpt>
      <trkpt lat="43.97262" lon="0.39132">
        <ele>154.3</ele>
      </trkpt>
      <trkpt lat="43.9726" lon="0.39135">
        <ele>154.3</ele>
      </trkpt>
      <trkpt lat="43.97257" lon="0.3914">
        <ele>154.2</ele>
      </trkpt>
      <trkpt lat="43.97253" lon="0.39149">
        <ele>154.1</ele>
      </trkpt>
      <trkpt lat="43.97234" lon="0.39178">
        <ele>153.6</ele>
      </trkpt>
      <trkpt lat="43.97216" lon="0.39186">
        <ele>153.5</ele>
      </trkpt>
      <trkpt lat="43.97212" lon="0.39197">
        <ele>153.6</ele>
      </trkpt>
      <trkpt lat="43.97188" lon="0.39253">
        <ele>153.7</ele>
      </trkpt>
      <trkpt lat="43.97185" lon="0.39256">
        <ele>153.6</ele>
      </trkpt>
      <trkpt lat="43.9718" lon="0.39256">
        <ele>153.5</ele>
      </trkpt>
      <trkpt lat="43.97167" lon="0.39253">
        <ele>153.1</ele>
      </trkpt>
      <trkpt lat="43.97152" lon="0.39245">
        <ele>153.3</ele>
      </trkpt>
      <trkpt lat="43.97136" lon="0.39233">
        <ele>152.9</ele>
      </trkpt>
      <trkpt lat="43.97121" lon="0.3922">
        <ele>152.6</ele>
      </trkpt>
      <trkpt lat="43.97109" lon="0.39201">
        <ele>152.2</ele>
      </trkpt>
      <trkpt lat="43.97092" lon="0.39181">
        <ele>151</ele>
      </trkpt>
      <trkpt lat="43.97057" lon="0.39143">
        <ele>148.3</ele>
      </trkpt>
      <trkpt lat="43.97022" lon="0.39111">
        <ele>144.8</ele>
      </trkpt>
      <trkpt lat="43.96999" lon="0.39091">
        <ele>142.6</ele>
      </trkpt>
      <trkpt lat="43.96974" lon="0.39067">
        <ele>141.8</ele>
      </trkpt>
      <trkpt lat="43.96967" lon="0.39055">
        <ele>141.5</ele>
      </trkpt>
      <trkpt lat="43.96961" lon="0.39037">
        <ele>141.1</ele>
      </trkpt>
      <trkpt lat="43.96958" lon="0.39026">
        <ele>141</ele>
      </trkpt>
      <trkpt lat="43.96947" lon="0.38992">
        <ele>139.8</ele>
      </trkpt>
      <trkpt lat="43.96945" lon="0.38984">
        <ele>139.2</ele>
      </trkpt>
      <trkpt lat="43.9694" lon="0.38974">
        <ele>139</ele>
      </trkpt>
      <trkpt lat="43.96931" lon="0.3896">
        <ele>139.6</ele>
      </trkpt>
      <trkpt lat="43.96922" lon="0.38951">
        <ele>140</ele>
      </trkpt>
      <trkpt lat="43.96918" lon="0.38948">
        <ele>140.2</ele>
      </trkpt>
      <trkpt lat="43.96914" lon="0.38946">
        <ele>140.4</ele>
      </trkpt>
      <trkpt lat="43.96909" lon="0.38945">
        <ele>140.8</ele>
      </trkpt>
      <trkpt lat="43.96909" lon="0.38944">
        <ele>140.8</ele>
      </trkpt>
      <trkpt lat="43.96904" lon="0.38945">
        <ele>141.4</ele>
      </trkpt>
      <trkpt lat="43.96894" lon="0.38947">
        <ele>142.8</ele>
      </trkpt>
      <trkpt lat="43.96871" lon="0.38956">
        <ele>144.6</ele>
      </trkpt>
      <trkpt lat="43.96863" lon="0.38959">
        <ele>145</ele>
      </trkpt>
      <trkpt lat="43.96845" lon="0.38961">
        <ele>144.6</ele>
      </trkpt>
      <trkpt lat="43.96836" lon="0.3896">
        <ele>144.2</ele>
      </trkpt>
      <trkpt lat="43.96831" lon="0.38959">
        <ele>143.7</ele>
      </trkpt>
      <trkpt lat="43.96826" lon="0.38956">
        <ele>142.8</ele>
      </trkpt>
      <trkpt lat="43.96818" lon="0.38951">
        <ele>141.5</ele>
      </trkpt>
      <trkpt lat="43.96806" lon="0.38941">
        <ele>139.9</ele>
      </trkpt>
      <trkpt lat="43.96803" lon="0.38939">
        <ele>139.5</ele>
      </trkpt>
      <trkpt lat="43.96802" lon="0.38934">
        <ele>139.1</ele>
      </trkpt>
      <trkpt lat="43.96794" lon="0.38928">
        <ele>137.7</ele>
      </trkpt>
      <trkpt lat="43.96764" lon="0.38909">
        <ele>133.4</ele>
      </trkpt>
      <trkpt lat="43.96748" lon="0.38899">
        <ele>131.1</ele>
      </trkpt>
      <trkpt lat="43.96737" lon="0.38893">
        <ele>129.3</ele>
      </trkpt>
      <trkpt lat="43.96713" lon="0.38876">
        <ele>125.7</ele>
      </trkpt>
      <trkpt lat="43.96693" lon="0.38861">
        <ele>122.9</ele>
      </trkpt>
      <trkpt lat="43.96643" lon="0.38822">
        <ele>118.4</ele>
      </trkpt>
      <trkpt lat="43.96625" lon="0.38805">
        <ele>116.5</ele>
      </trkpt>
      <trkpt lat="43.96601" lon="0.38778">
        <ele>112.9</ele>
      </trkpt>
      <trkpt lat="43.96558" lon="0.38726">
        <ele>107.4</ele>
      </trkpt>
      <trkpt lat="43.96554" lon="0.38721">
        <ele>106.8</ele>
      </trkpt>
      <trkpt lat="43.96535" lon="0.3869">
        <ele>101.8</ele>
      </trkpt>
      <trkpt lat="43.96526" lon="0.38665">
        <ele>98.6</ele>
      </trkpt>
      <trkpt lat="43.96518" lon="0.3865">
        <ele>96.6</ele>
      </trkpt>
      <trkpt lat="43.9651" lon="0.38636">
        <ele>94.6</ele>
      </trkpt>
      <trkpt lat="43.96471" lon="0.38585">
        <ele>91.2</ele>
      </trkpt>
      <trkpt lat="43.96456" lon="0.38552">
        <ele>92.9</ele>
      </trkpt>
      <trkpt lat="43.96443" lon="0.38521">
        <ele>94.3</ele>
      </trkpt>
      <trkpt lat="43.96425" lon="0.3848">
        <ele>97</ele>
      </trkpt>
      <trkpt lat="43.96416" lon="0.3846">
        <ele>98.5</ele>
      </trkpt>
      <trkpt lat="43.96401" lon="0.38429">
        <ele>100.9</ele>
      </trkpt>
      <trkpt lat="43.96398" lon="0.38425">
        <ele>101.2</ele>
      </trkpt>
      <trkpt lat="43.96396" lon="0.38423">
        <ele>101.4</ele>
      </trkpt>
      <trkpt lat="43.96393" lon="0.3842">
        <ele>101.7</ele>
      </trkpt>
      <trkpt lat="43.96392" lon="0.3842">
        <ele>101.7</ele>
      </trkpt>
      <trkpt lat="43.96388" lon="0.38417">
        <ele>102.1</ele>
      </trkpt>
      <trkpt lat="43.96382" lon="0.38415">
        <ele>102.5</ele>
      </trkpt>
      <trkpt lat="43.96375" lon="0.38412">
        <ele>103.1</ele>
      </trkpt>
      <trkpt lat="43.96332" lon="0.38397">
        <ele>107.1</ele>
      </trkpt>
      <trkpt lat="43.96317" lon="0.38392">
        <ele>108.2</ele>
      </trkpt>
      <trkpt lat="43.96301" lon="0.38388">
        <ele>109.2</ele>
      </trkpt>
      <trkpt lat="43.96238" lon="0.38364">
        <ele>111</ele>
      </trkpt>
      <trkpt lat="43.96226" lon="0.38358">
        <ele>110.9</ele>
      </trkpt>
      <trkpt lat="43.96179" lon="0.38329">
        <ele>108.6</ele>
      </trkpt>
      <trkpt lat="43.9615" lon="0.38311">
        <ele>105.1</ele>
      </trkpt>
      <trkpt lat="43.96132" lon="0.38299">
        <ele>103.8</ele>
      </trkpt>
      <trkpt lat="43.96098" lon="0.38274">
        <ele>105.3</ele>
      </trkpt>
      <trkpt lat="43.96084" lon="0.38265">
        <ele>106.4</ele>
      </trkpt>
      <trkpt lat="43.9608" lon="0.38283">
        <ele>107.3</ele>
      </trkpt>
      <trkpt lat="43.9608" lon="0.38298">
        <ele>107.9</ele>
      </trkpt>
      <trkpt lat="43.96081" lon="0.38327">
        <ele>108.9</ele>
      </trkpt>
      <trkpt lat="43.96079" lon="0.38345">
        <ele>109.4</ele>
      </trkpt>
      <trkpt lat="43.96074" lon="0.38366">
        <ele>109.6</ele>
      </trkpt>
      <trkpt lat="43.96066" lon="0.38377">
        <ele>110.1</ele>
      </trkpt>
      <trkpt lat="43.95989" lon="0.38221">
        <ele>102.6</ele>
      </trkpt>
      <trkpt lat="43.95968" lon="0.38237">
        <ele>104.7</ele>
      </trkpt>
      <trkpt lat="43.95941" lon="0.38245">
        <ele>106.2</ele>
      </trkpt>
      <trkpt lat="43.9593" lon="0.38252">
        <ele>107.1</ele>
      </trkpt>
      <trkpt lat="43.95918" lon="0.38259">
        <ele>108.2</ele>
      </trkpt>
      <trkpt lat="43.95894" lon="0.38244">
        <ele>107.4</ele>
      </trkpt>
      <trkpt lat="43.95886" lon="0.38233">
        <ele>105.9</ele>
      </trkpt>
      <trkpt lat="43.95841" lon="0.3816">
        <ele>98.3</ele>
      </trkpt>
      <trkpt lat="43.95758" lon="0.38055">
        <ele>87.1</ele>
      </trkpt>
      <trkpt lat="43.95716" lon="0.38044">
        <ele>82.3</ele>
      </trkpt>
      <trkpt lat="43.9569" lon="0.38033">
        <ele>80.8</ele>
      </trkpt>
      <trkpt lat="43.95671" lon="0.3802">
        <ele>78.9</ele>
      </trkpt>
      <trkpt lat="43.95643" lon="0.38002">
        <ele>75.7</ele>
      </trkpt>
      <trkpt lat="43.9549" lon="0.37798">
        <ele>81.2</ele>
      </trkpt>
      <trkpt lat="43.95483" lon="0.37669">
        <ele>85.3</ele>
      </trkpt>
      <trkpt lat="43.95523" lon="0.37577">
        <ele>87.6</ele>
      </trkpt>
      <trkpt lat="43.95334" lon="0.37313">
        <ele>100.2</ele>
      </trkpt>
      <trkpt lat="43.95438" lon="0.37034">
        <ele>89.5</ele>
      </trkpt>
      <trkpt lat="43.95527" lon="0.36975">
        <ele>83.2</ele>
      </trkpt>
      <trkpt lat="43.95592" lon="0.36927">
        <ele>78.3</ele>
      </trkpt>
      <trkpt lat="43.95671" lon="0.3691">
        <ele>73.7</ele>
      </trkpt>
      <trkpt lat="43.95684" lon="0.36826">
        <ele>71.7</ele>
      </trkpt>
      <trkpt lat="43.9576" lon="0.36844">
        <ele>70.2</ele>
      </trkpt>
      <trkpt lat="43.9581" lon="0.36814">
        <ele>71</ele>
      </trkpt>
      <trkpt lat="43.95912" lon="0.36788">
        <ele>71.7</ele>
      </trkpt>
      <trkpt lat="43.9589" lon="0.36925">
        <ele>72.6</ele>
      </trkpt>
      <trkpt lat="43.95972" lon="0.36965">
        <ele>71.7</ele>
      </trkpt>
      <trkpt lat="43.96097" lon="0.37052">
        <ele>70.5</ele>
      </trkpt>
      <trkpt lat="43.9606" lon="0.372">
        <ele>72.1</ele>
      </trkpt>
      <trkpt lat="43.96066" lon="0.37289">
        <ele>78.8</ele>
      </trkpt>
      <trkpt lat="43.96016" lon="0.37267">
        <ele>80.7</ele>
      </trkpt>
      <trkpt lat="43.95999" lon="0.37305">
        <ele>81</ele>
      </trkpt>
      <trkpt lat="43.95901" lon="0.37329">
        <ele>80</ele>
      </trkpt>
      <trkpt lat="43.95881" lon="0.3736">
        <ele>76.8</ele>
      </trkpt>
      <trkpt lat="43.95909" lon="0.37403">
        <ele>74.3</ele>
      </trkpt>
      <trkpt lat="43.95859" lon="0.37474">
        <ele>74.9</ele>
      </trkpt>
      <trkpt lat="43.95824" lon="0.37517">
        <ele>75</ele>
      </trkpt>
      <trkpt lat="43.95755" lon="0.376">
        <ele>76.7</ele>
      </trkpt>
      <trkpt lat="43.95724" lon="0.37663">
        <ele>78.9</ele>
      </trkpt>
      <trkpt lat="43.95661" lon="0.38014">
        <ele>77.1</ele>
      </trkpt>
      <trkpt lat="43.9568" lon="0.3802">
        <ele>78.8</ele>
      </trkpt>
      <trkpt lat="43.95714" lon="0.38036">
        <ele>81.2</ele>
      </trkpt>
      <trkpt lat="43.95746" lon="0.38048">
        <ele>84.7</ele>
      </trkpt>
      <trkpt lat="43.95773" lon="0.38065">
        <ele>89</ele>
      </trkpt>
      <trkpt lat="43.95842" lon="0.38167">
        <ele>98.6</ele>
      </trkpt>
      <trkpt lat="43.95906" lon="0.38243">
        <ele>107.6</ele>
      </trkpt>
      <trkpt lat="43.95918" lon="0.38254">
        <ele>108.1</ele>
      </trkpt>
      <trkpt lat="43.95918" lon="0.38259">
        <ele>108.2</ele>
      </trkpt>
      <trkpt lat="43.9592" lon="0.3828">
        <ele>109</ele>
      </trkpt>
      <trkpt lat="43.95927" lon="0.38361">
        <ele>111.6</ele>
      </trkpt>
      <trkpt lat="43.95928" lon="0.3845">
        <ele>113.8</ele>
      </trkpt>
      <trkpt lat="43.95926" lon="0.38507">
        <ele>115.8</ele>
      </trkpt>
      <trkpt lat="43.95916" lon="0.38571">
        <ele>117.6</ele>
      </trkpt>
      <trkpt lat="43.95912" lon="0.3859">
        <ele>118.4</ele>
      </trkpt>
      <trkpt lat="43.95914" lon="0.38626">
        <ele>119.5</ele>
      </trkpt>
      <trkpt lat="43.95921" lon="0.38708">
        <ele>121.6</ele>
      </trkpt>
      <trkpt lat="43.95926" lon="0.38784">
        <ele>123.6</ele>
      </trkpt>
      <trkpt lat="43.95933" lon="0.38845">
        <ele>126.4</ele>
      </trkpt>
      <trkpt lat="43.95939" lon="0.38933">
        <ele>133</ele>
      </trkpt>
      <trkpt lat="43.95951" lon="0.39036">
        <ele>142.1</ele>
      </trkpt>
      <trkpt lat="43.95969" lon="0.3918">
        <ele>140.2</ele>
      </trkpt>
      <trkpt lat="43.95969" lon="0.39246">
        <ele>141.5</ele>
      </trkpt>
      <trkpt lat="43.95964" lon="0.39326">
        <ele>144.2</ele>
      </trkpt>
      <trkpt lat="43.95964" lon="0.39364">
        <ele>144.4</ele>
      </trkpt>
      <trkpt lat="43.95967" lon="0.39385">
        <ele>143.7</ele>
      </trkpt>
      <trkpt lat="43.95979" lon="0.39468">
        <ele>143.2</ele>
      </trkpt>
      <trkpt lat="43.95984" lon="0.39499">
        <ele>143.3</ele>
      </trkpt>
      <trkpt lat="43.95994" lon="0.39595">
        <ele>143.7</ele>
      </trkpt>
      <trkpt lat="43.96002" lon="0.39684">
        <ele>144.7</ele>
      </trkpt>
      <trkpt lat="43.96011" lon="0.39777">
        <ele>145.2</ele>
      </trkpt>
      <trkpt lat="43.96035" lon="0.39895">
        <ele>144.8</ele>
      </trkpt>
      <trkpt lat="43.96053" lon="0.39981">
        <ele>145.5</ele>
      </trkpt>
      <trkpt lat="43.96068" lon="0.40076">
        <ele>145.5</ele>
      </trkpt>
      <trkpt lat="43.9608" lon="0.40131">
        <ele>146.5</ele>
      </trkpt>
      <trkpt lat="43.96099" lon="0.4022">
        <ele>148.1</ele>
      </trkpt>
      <trkpt lat="43.96125" lon="0.40316">
        <ele>149.8</ele>
      </trkpt>
      <trkpt lat="43.96142" lon="0.4041">
        <ele>152.1</ele>
      </trkpt>
      <trkpt lat="43.96153" lon="0.40491">
        <ele>155.2</ele>
      </trkpt>
      <trkpt lat="43.96168" lon="0.40553">
        <ele>159.1</ele>
      </trkpt>
      <trkpt lat="43.96189" lon="0.40624">
        <ele>165.4</ele>
      </trkpt>
      <trkpt lat="43.962" lon="0.40664">
        <ele>169.4</ele>
      </trkpt>
      <trkpt lat="43.9621" lon="0.40722">
        <ele>173.6</ele>
      </trkpt>
      <trkpt lat="43.96229" lon="0.40786">
        <ele>176.3</ele>
      </trkpt>
      <trkpt lat="43.96233" lon="0.40802">
        <ele>176.4</ele>
      </trkpt>
      <trkpt lat="43.96262" lon="0.40929">
        <ele>175.6</ele>
      </trkpt>
      <trkpt lat="43.96301" lon="0.41071">
        <ele>168.7</ele>
      </trkpt>
      <trkpt lat="43.96307" lon="0.41105">
        <ele>166.5</ele>
      </trkpt>
      <trkpt lat="43.96309" lon="0.4115">
        <ele>163.4</ele>
      </trkpt>
      <trkpt lat="43.96311" lon="0.41171">
        <ele>162.1</ele>
      </trkpt>
      <trkpt lat="43.96326" lon="0.41238">
        <ele>156.7</ele>
      </trkpt>
      <trkpt lat="43.96345" lon="0.41347">
        <ele>149.2</ele>
      </trkpt>
      <trkpt lat="43.96351" lon="0.41366">
        <ele>148.3</ele>
      </trkpt>
      <trkpt lat="43.96369" lon="0.41425">
        <ele>145.3</ele>
      </trkpt>
      <trkpt lat="43.9637" lon="0.41442">
        <ele>145</ele>
      </trkpt>
      <trkpt lat="43.9637" lon="0.41455">
        <ele>145</ele>
      </trkpt>
      <trkpt lat="43.96365" lon="0.41469">
        <ele>144.4</ele>
      </trkpt>
      <trkpt lat="43.96349" lon="0.41506">
        <ele>143.2</ele>
      </trkpt>
      <trkpt lat="43.96334" lon="0.41547">
        <ele>142.1</ele>
      </trkpt>
      <trkpt lat="43.96332" lon="0.41569">
        <ele>142.3</ele>
      </trkpt>
      <trkpt lat="43.96325" lon="0.41613">
        <ele>141</ele>
      </trkpt>
      <trkpt lat="43.96317" lon="0.41647">
        <ele>139.4</ele>
      </trkpt>
      <trkpt lat="43.96321" lon="0.41723">
        <ele>137.2</ele>
      </trkpt>
      <trkpt lat="43.96329" lon="0.41851">
        <ele>136.9</ele>
      </trkpt>
      <trkpt lat="43.96332" lon="0.41938">
        <ele>132.3</ele>
      </trkpt>
      <trkpt lat="43.96334" lon="0.41957">
        <ele>131.2</ele>
      </trkpt>
      <trkpt lat="43.96352" lon="0.42008">
        <ele>128.2</ele>
      </trkpt>
      <trkpt lat="43.96353" lon="0.4204">
        <ele>126.8</ele>
      </trkpt>
      <trkpt lat="43.96355" lon="0.42079">
        <ele>126.3</ele>
      </trkpt>
      <trkpt lat="43.9641" lon="0.42215">
        <ele>128.8</ele>
      </trkpt>
      <trkpt lat="43.96421" lon="0.42252">
        <ele>129.6</ele>
      </trkpt>
      <trkpt lat="43.96433" lon="0.423">
        <ele>132.1</ele>
      </trkpt>
      <trkpt lat="43.96445" lon="0.4234">
        <ele>133.5</ele>
      </trkpt>
      <trkpt lat="43.96455" lon="0.42386">
        <ele>135.3</ele>
      </trkpt>
      <trkpt lat="43.96467" lon="0.42433">
        <ele>137</ele>
      </trkpt>
      <trkpt lat="43.96476" lon="0.42484">
        <ele>137.7</ele>
      </trkpt>
      <trkpt lat="43.96483" lon="0.42514">
        <ele>137.6</ele>
      </trkpt>
      <trkpt lat="43.96487" lon="0.42533">
        <ele>137.3</ele>
      </trkpt>
      <trkpt lat="43.96486" lon="0.42561">
        <ele>136.9</ele>
      </trkpt>
      <trkpt lat="43.96478" lon="0.42599">
        <ele>136.1</ele>
      </trkpt>
      <trkpt lat="43.96465" lon="0.42662">
        <ele>134.4</ele>
      </trkpt>
      <trkpt lat="43.96448" lon="0.42722">
        <ele>131.8</ele>
      </trkpt>
      <trkpt lat="43.96425" lon="0.42776">
        <ele>128.6</ele>
      </trkpt>
      <trkpt lat="43.96402" lon="0.42834">
        <ele>124.6</ele>
      </trkpt>
      <trkpt lat="43.96397" lon="0.42842">
        <ele>124.7</ele>
      </trkpt>
      <trkpt lat="43.96379" lon="0.42855">
        <ele>125</ele>
      </trkpt>
      <trkpt lat="43.9635" lon="0.42881">
        <ele>124.5</ele>
      </trkpt>
      <trkpt lat="43.96324" lon="0.42905">
        <ele>124.8</ele>
      </trkpt>
      <trkpt lat="43.96299" lon="0.42933">
        <ele>125.2</ele>
      </trkpt>
      <trkpt lat="43.96279" lon="0.42979">
        <ele>124.7</ele>
      </trkpt>
      <trkpt lat="43.96258" lon="0.43018">
        <ele>125.1</ele>
      </trkpt>
      <trkpt lat="43.96242" lon="0.43036">
        <ele>125</ele>
      </trkpt>
      <trkpt lat="43.96189" lon="0.43077">
        <ele>124.8</ele>
      </trkpt>
      <trkpt lat="43.96157" lon="0.43103">
        <ele>125.3</ele>
      </trkpt>
      <trkpt lat="43.96138" lon="0.43133">
        <ele>124.6</ele>
      </trkpt>
      <trkpt lat="43.96093" lon="0.43193">
        <ele>124.5</ele>
      </trkpt>
      <trkpt lat="43.96007" lon="0.43243">
        <ele>125.2</ele>
      </trkpt>
      <trkpt lat="43.95937" lon="0.43294">
        <ele>124.7</ele>
      </trkpt>
      <trkpt lat="43.95893" lon="0.43344">
        <ele>123.5</ele>
      </trkpt>
      <trkpt lat="43.95878" lon="0.4335">
        <ele>123.8</ele>
      </trkpt>
      <trkpt lat="43.95835" lon="0.43358">
        <ele>124.1</ele>
      </trkpt>
      <trkpt lat="43.95825" lon="0.43364">
        <ele>124.4</ele>
      </trkpt>
      <trkpt lat="43.95812" lon="0.43383">
        <ele>124.9</ele>
      </trkpt>
      <trkpt lat="43.95814" lon="0.4339">
        <ele>125.1</ele>
      </trkpt>
      <trkpt lat="43.95817" lon="0.43398">
        <ele>125.6</ele>
      </trkpt>
      <trkpt lat="43.95824" lon="0.434">
        <ele>125.8</ele>
      </trkpt>
      <trkpt lat="43.95873" lon="0.43401">
        <ele>125</ele>
      </trkpt>
      <trkpt lat="43.95942" lon="0.43392">
        <ele>126.3</ele>
      </trkpt>
      <trkpt lat="43.95953" lon="0.43399">
        <ele>126.8</ele>
      </trkpt>
      <trkpt lat="43.9595" lon="0.43408">
        <ele>127.9</ele>
      </trkpt>
      <trkpt lat="43.95948" lon="0.43424">
        <ele>129.9</ele>
      </trkpt>
      <trkpt lat="43.95948" lon="0.4348">
        <ele>137</ele>
      </trkpt>
      <trkpt lat="43.95939" lon="0.43537">
        <ele>141.3</ele>
      </trkpt>
      <trkpt lat="43.95923" lon="0.43615">
        <ele>144.7</ele>
      </trkpt>
      <trkpt lat="43.95908" lon="0.43634">
        <ele>146.3</ele>
      </trkpt>
      <trkpt lat="43.95909" lon="0.43655">
        <ele>146.1</ele>
      </trkpt>
      <trkpt lat="43.95906" lon="0.43738">
        <ele>147.8</ele>
      </trkpt>
      <trkpt lat="43.95912" lon="0.43824">
        <ele>150.8</ele>
      </trkpt>
      <trkpt lat="43.95926" lon="0.4402">
        <ele>161.4</ele>
      </trkpt>
      <trkpt lat="43.95926" lon="0.44071">
        <ele>164.6</ele>
      </trkpt>
      <trkpt lat="43.9599" lon="0.44037">
        <ele>164.1</ele>
      </trkpt>
      <trkpt lat="43.96024" lon="0.44028">
        <ele>164</ele>
      </trkpt>
      <trkpt lat="43.96057" lon="0.44021">
        <ele>164.7</ele>
      </trkpt>
      <trkpt lat="43.96144" lon="0.4403">
        <ele>160.9</ele>
      </trkpt>
      <trkpt lat="43.96209" lon="0.44048">
        <ele>160.7</ele>
      </trkpt>
      <trkpt lat="43.96324" lon="0.44081">
        <ele>167.2</ele>
      </trkpt>
      <trkpt lat="43.9635" lon="0.44095">
        <ele>168.8</ele>
      </trkpt>
      <trkpt lat="43.96379" lon="0.44114">
        <ele>168.3</ele>
      </trkpt>
      <trkpt lat="43.9639" lon="0.44116">
        <ele>167.9</ele>
      </trkpt>
      <trkpt lat="43.96392" lon="0.44129">
        <ele>167.8</ele>
      </trkpt>
      <trkpt lat="43.96385" lon="0.44155">
        <ele>167.1</ele>
      </trkpt>
      <trkpt lat="43.96376" lon="0.44175">
        <ele>166.3</ele>
      </trkpt>
      <trkpt lat="43.96348" lon="0.44219">
        <ele>164.7</ele>
      </trkpt>
      <trkpt lat="43.96343" lon="0.44229">
        <ele>164.1</ele>
      </trkpt>
      <trkpt lat="43.96344" lon="0.44245">
        <ele>163.6</ele>
      </trkpt>
      <trkpt lat="43.96348" lon="0.44257">
        <ele>163.3</ele>
      </trkpt>
      <trkpt lat="43.96356" lon="0.44276">
        <ele>163.5</ele>
      </trkpt>
      <trkpt lat="43.96382" lon="0.44317">
        <ele>161.2</ele>
      </trkpt>
      <trkpt lat="43.96395" lon="0.44331">
        <ele>159.9</ele>
      </trkpt>
      <trkpt lat="43.9645" lon="0.44381">
        <ele>155.4</ele>
      </trkpt>
      <trkpt lat="43.96458" lon="0.44395">
        <ele>154.4</ele>
      </trkpt>
      <trkpt lat="43.96458" lon="0.44406">
        <ele>154.2</ele>
      </trkpt>
      <trkpt lat="43.96457" lon="0.44418">
        <ele>154.1</ele>
      </trkpt>
      <trkpt lat="43.96452" lon="0.44456">
        <ele>152.9</ele>
      </trkpt>
      <trkpt lat="43.96449" lon="0.44476">
        <ele>152.5</ele>
      </trkpt>
      <trkpt lat="43.96448" lon="0.44527">
        <ele>151.6</ele>
      </trkpt>
      <trkpt lat="43.96441" lon="0.4457">
        <ele>151.4</ele>
      </trkpt>
      <trkpt lat="43.96436" lon="0.446">
        <ele>151.2</ele>
      </trkpt>
      <trkpt lat="43.96439" lon="0.44614">
        <ele>150.5</ele>
      </trkpt>
      <trkpt lat="43.96448" lon="0.44624">
        <ele>149.1</ele>
      </trkpt>
      <trkpt lat="43.96477" lon="0.44644">
        <ele>145.2</ele>
      </trkpt>
      <trkpt lat="43.96487" lon="0.44648">
        <ele>144</ele>
      </trkpt>
      <trkpt lat="43.96496" lon="0.44642">
        <ele>143.3</ele>
      </trkpt>
      <trkpt lat="43.96502" lon="0.44637">
        <ele>142.9</ele>
      </trkpt>
      <trkpt lat="43.96524" lon="0.44648">
        <ele>140.3</ele>
      </trkpt>
      <trkpt lat="43.96541" lon="0.44684">
        <ele>137.8</ele>
      </trkpt>
      <trkpt lat="43.96563" lon="0.4472">
        <ele>133.6</ele>
      </trkpt>
      <trkpt lat="43.96605" lon="0.44763">
        <ele>126.9</ele>
      </trkpt>
      <trkpt lat="43.96632" lon="0.4479">
        <ele>123.1</ele>
      </trkpt>
      <trkpt lat="43.96656" lon="0.44821">
        <ele>119.6</ele>
      </trkpt>
      <trkpt lat="43.96674" lon="0.44851">
        <ele>117.2</ele>
      </trkpt>
      <trkpt lat="43.96716" lon="0.44915">
        <ele>113.8</ele>
      </trkpt>
      <trkpt lat="43.96772" lon="0.45003">
        <ele>110.8</ele>
      </trkpt>
      <trkpt lat="43.96816" lon="0.45031">
        <ele>104.6</ele>
      </trkpt>
      <trkpt lat="43.96834" lon="0.45037">
        <ele>103.7</ele>
      </trkpt>
      <trkpt lat="43.96864" lon="0.45039">
        <ele>103.7</ele>
      </trkpt>
      <trkpt lat="43.96928" lon="0.45053">
        <ele>104.6</ele>
      </trkpt>
      <trkpt lat="43.9697" lon="0.45077">
        <ele>104.4</ele>
      </trkpt>
      <trkpt lat="43.96979" lon="0.4509">
        <ele>103.8</ele>
      </trkpt>
      <trkpt lat="43.9704" lon="0.45237">
        <ele>101</ele>
      </trkpt>
      <trkpt lat="43.97057" lon="0.45347">
        <ele>106.5</ele>
      </trkpt>
      <trkpt lat="43.97206" lon="0.45248">
        <ele>106.7</ele>
      </trkpt>
      <trkpt lat="43.97389" lon="0.45141">
        <ele>107.1</ele>
      </trkpt>
      <trkpt lat="43.97605" lon="0.45252">
        <ele>107.7</ele>
      </trkpt>
      <trkpt lat="43.97534" lon="0.45336">
        <ele>120.5</ele>
      </trkpt>
      <trkpt lat="43.9743" lon="0.45407">
        <ele>138</ele>
      </trkpt>
      <trkpt lat="43.97399" lon="0.4552">
        <ele>141.3</ele>
      </trkpt>
      <trkpt lat="43.97358" lon="0.45527">
        <ele>146.4</ele>
      </trkpt>
      <trkpt lat="43.97335" lon="0.45555">
        <ele>149.8</ele>
      </trkpt>
      <trkpt lat="43.97219" lon="0.4561">
        <ele>162.4</ele>
      </trkpt>
      <trkpt lat="43.97213" lon="0.45664">
        <ele>164.5</ele>
      </trkpt>
      <trkpt lat="43.97172" lon="0.4575">
        <ele>166.8</ele>
      </trkpt>
      <trkpt lat="43.97118" lon="0.45836">
        <ele>165.6</ele>
      </trkpt>
      <trkpt lat="43.97117" lon="0.45776">
        <ele>161.7</ele>
      </trkpt>
      <trkpt lat="43.97074" lon="0.45675">
        <ele>149.4</ele>
      </trkpt>
      <trkpt lat="43.97075" lon="0.45578">
        <ele>137.7</ele>
      </trkpt>
      <trkpt lat="43.97055" lon="0.45392">
        <ele>112.4</ele>
      </trkpt>
      <trkpt lat="43.97048" lon="0.45315">
        <ele>103.8</ele>
      </trkpt>
      <trkpt lat="43.97026" lon="0.4526">
        <ele>107.048</ele>
        <time>2016-08-11T11:24:09Z</time>
      </trkpt>
      <trkpt lat="43.96978" lon="0.45249">
        <ele>107.097</ele>
        <time>2016-08-11T11:24:09Z</time>
      </trkpt>
      <trkpt lat="43.96905" lon="0.45268">
        <ele>107.095</ele>
        <time>2016-08-11T11:24:09Z</time>
      </trkpt>
      <trkpt lat="43.96868" lon="0.45353">
        <ele>107.012</ele>
        <time>2016-08-11T11:24:09Z</time>
      </trkpt>
      <trkpt lat="43.96748" lon="0.45495">
        <ele>108.088</ele>
        <time>2016-08-11T11:24:09Z</time>
      </trkpt>
      <trkpt lat="43.96686" lon="0.45628">
        <ele>111.051</ele>
        <time>2016-08-11T11:24:09Z</time>
      </trkpt>
      <trkpt lat="43.96523" lon="0.45674">
        <ele>110.059</ele>
        <time>2016-08-11T11:24:09Z</time>
      </trkpt>
      <trkpt lat="43.96365" lon="0.45813">
        <ele>108.088</ele>
        <time>2016-08-11T11:24:09Z</time>
      </trkpt>
      <trkpt lat="43.96302" lon="0.45914">
        <ele>115.024</ele>
        <time>2016-08-11T11:24:09Z</time>
      </trkpt>
      <trkpt lat="43.96232" lon="0.45924">
        <ele>114.026</ele>
        <time>2016-08-11T11:24:09Z</time>
      </trkpt>
      <trkpt lat="43.96195" lon="0.45944">
        <ele>112.008</ele>
        <time>2016-08-11T11:24:09Z</time>
      </trkpt>
      <trkpt lat="43.96097" lon="0.46043">
        <ele>120.089</ele>
        <time>2016-08-11T11:24:09Z</time>
      </trkpt>
      <trkpt lat="43.96044" lon="0.46065">
        <ele>120.052</ele>
        <time>2016-08-11T11:24:09Z</time>
      </trkpt>
      <trkpt lat="43.95968" lon="0.46144">
        <ele>114.091</ele>
        <time>2016-08-11T11:24:09Z</time>
      </trkpt>
      <trkpt lat="43.95752" lon="0.46263">
        <ele>111.089</ele>
        <time>2016-08-11T11:24:09Z</time>
      </trkpt>
      <trkpt lat="43.9559" lon="0.4646">
        <ele>114.036</ele>
        <time>2016-08-11T11:24:09Z</time>
      </trkpt>
      <trkpt lat="43.95421" lon="0.46618">
        <ele>111.022</ele>
        <time>2016-08-11T11:24:09Z</time>
      </trkpt>
      <trkpt lat="43.95238" lon="0.46736">
        <ele>112.095</ele>
        <time>2016-08-11T11:24:09Z</time>
      </trkpt>
      <trkpt lat="43.95138" lon="0.46877">
        <ele>116.083</ele>
        <time>2016-08-11T11:24:09Z</time>
      </trkpt>
      <trkpt lat="43.95041" lon="0.47047">
        <ele>112.018</ele>
        <time>2016-08-11T11:24:09Z</time>
      </trkpt>
      <trkpt lat="43.94909" lon="0.47148">
        <ele>114.098</ele>
        <time>2016-08-11T11:24:09Z</time>
      </trkpt>
    </trkseg>
  </trk>
</gpx>